<?xml version="1.0" encoding="UTF-8" standalone="no" ?>
<gpx xmlns="http://www.topografix.com/GPX/1/1" xmlns:xsi="http://www.w3.org/2001/XMLSchema-instance" xsi:schemaLocation="http://www.topografix.com/GPX/1/1 http://www.topografix.com/GPX/1/1/gpx.xsd" version="1.1" creator="VisuGPX - https://www.visugpx.com">
  <metadata>
    <name>83-M-Taradeau</name>
    <desc><![CDATA[83-M-Taradeau : les Bertrands - les Chevriers]]></desc>
  </metadata>
  <trk>
    <name><![CDATA[2 mai 2018]]></name>
    <cmt><![CDATA[13:46:25]]></cmt>
    <desc><![CDATA[comment ...]]></desc>
    <trkseg>
      <trkpt lat="43.45385" lon="6.42659">
        <ele>73</ele>
        <time>2018-05-02T11:46:25Z</time>
      </trkpt>
      <trkpt lat="43.45385" lon="6.42659">
        <ele>73</ele>
        <time>2018-05-02T11:46:26Z</time>
      </trkpt>
      <trkpt lat="43.45382" lon="6.42648">
        <ele>71</ele>
        <time>2018-05-02T11:49:14Z</time>
      </trkpt>
      <trkpt lat="43.4539" lon="6.4265">
        <ele>70</ele>
        <time>2018-05-02T11:49:46Z</time>
      </trkpt>
      <trkpt lat="43.45397" lon="6.42632">
        <ele>70</ele>
        <time>2018-05-02T11:50:17Z</time>
      </trkpt>
      <trkpt lat="43.4538" lon="6.42601">
        <ele>69</ele>
        <time>2018-05-02T11:50:47Z</time>
      </trkpt>
      <trkpt lat="43.45365" lon="6.42567">
        <ele>69</ele>
        <time>2018-05-02T11:51:19Z</time>
      </trkpt>
      <trkpt lat="43.45363" lon="6.42562">
        <ele>69</ele>
        <time>2018-05-02T11:51:25Z</time>
      </trkpt>
      <trkpt lat="43.45358" lon="6.42554">
        <ele>69</ele>
        <time>2018-05-02T11:51:34Z</time>
      </trkpt>
      <trkpt lat="43.45354" lon="6.42547">
        <ele>69</ele>
        <time>2018-05-02T11:51:39Z</time>
      </trkpt>
      <trkpt lat="43.45348" lon="6.42533">
        <ele>70</ele>
        <time>2018-05-02T11:51:55Z</time>
      </trkpt>
      <trkpt lat="43.45344" lon="6.42528">
        <ele>70</ele>
        <time>2018-05-02T11:52:00Z</time>
      </trkpt>
      <trkpt lat="43.45342" lon="6.42521">
        <ele>70</ele>
        <time>2018-05-02T11:52:07Z</time>
      </trkpt>
      <trkpt lat="43.45337" lon="6.42513">
        <ele>70</ele>
        <time>2018-05-02T11:52:17Z</time>
      </trkpt>
      <trkpt lat="43.45334" lon="6.42508">
        <ele>70</ele>
        <time>2018-05-02T11:52:21Z</time>
      </trkpt>
      <trkpt lat="43.45327" lon="6.42492">
        <ele>70</ele>
        <time>2018-05-02T11:52:36Z</time>
      </trkpt>
      <trkpt lat="43.45322" lon="6.42485">
        <ele>70</ele>
        <time>2018-05-02T11:52:45Z</time>
      </trkpt>
      <trkpt lat="43.45318" lon="6.42478">
        <ele>71</ele>
        <time>2018-05-02T11:52:50Z</time>
      </trkpt>
      <trkpt lat="43.45311" lon="6.42458">
        <ele>70</ele>
        <time>2018-05-02T11:53:03Z</time>
      </trkpt>
      <trkpt lat="43.45307" lon="6.42452">
        <ele>70</ele>
        <time>2018-05-02T11:53:07Z</time>
      </trkpt>
      <trkpt lat="43.45304" lon="6.42447">
        <ele>70</ele>
        <time>2018-05-02T11:53:11Z</time>
      </trkpt>
      <trkpt lat="43.45298" lon="6.42417">
        <ele>70</ele>
        <time>2018-05-02T11:53:30Z</time>
      </trkpt>
      <trkpt lat="43.45296" lon="6.424">
        <ele>69</ele>
        <time>2018-05-02T11:53:44Z</time>
      </trkpt>
      <trkpt lat="43.45291" lon="6.42389">
        <ele>69</ele>
        <time>2018-05-02T11:53:51Z</time>
      </trkpt>
      <trkpt lat="43.45289" lon="6.42363">
        <ele>69</ele>
        <time>2018-05-02T11:54:10Z</time>
      </trkpt>
      <trkpt lat="43.45286" lon="6.42344">
        <ele>69</ele>
        <time>2018-05-02T11:54:23Z</time>
      </trkpt>
      <trkpt lat="43.45285" lon="6.42339">
        <ele>69</ele>
        <time>2018-05-02T11:54:27Z</time>
      </trkpt>
      <trkpt lat="43.45285" lon="6.42324">
        <ele>70</ele>
        <time>2018-05-02T11:54:38Z</time>
      </trkpt>
      <trkpt lat="43.45283" lon="6.42309">
        <ele>70</ele>
        <time>2018-05-02T11:54:46Z</time>
      </trkpt>
      <trkpt lat="43.45282" lon="6.42302">
        <ele>70</ele>
        <time>2018-05-02T11:54:52Z</time>
      </trkpt>
      <trkpt lat="43.4528" lon="6.42294">
        <ele>71</ele>
        <time>2018-05-02T11:54:57Z</time>
      </trkpt>
      <trkpt lat="43.45276" lon="6.42279">
        <ele>70</ele>
        <time>2018-05-02T11:55:10Z</time>
      </trkpt>
      <trkpt lat="43.45275" lon="6.42273">
        <ele>70</ele>
        <time>2018-05-02T11:55:13Z</time>
      </trkpt>
      <trkpt lat="43.45276" lon="6.42267">
        <ele>71</ele>
        <time>2018-05-02T11:55:16Z</time>
      </trkpt>
      <trkpt lat="43.45275" lon="6.42262">
        <ele>71</ele>
        <time>2018-05-02T11:55:21Z</time>
      </trkpt>
      <trkpt lat="43.45276" lon="6.42255">
        <ele>71</ele>
        <time>2018-05-02T11:55:24Z</time>
      </trkpt>
      <trkpt lat="43.45278" lon="6.4225">
        <ele>71</ele>
        <time>2018-05-02T11:55:28Z</time>
      </trkpt>
      <trkpt lat="43.4528" lon="6.42243">
        <ele>71</ele>
        <time>2018-05-02T11:55:32Z</time>
      </trkpt>
      <trkpt lat="43.45281" lon="6.42236">
        <ele>72</ele>
        <time>2018-05-02T11:55:37Z</time>
      </trkpt>
      <trkpt lat="43.4528" lon="6.4223">
        <ele>72</ele>
        <time>2018-05-02T11:55:39Z</time>
      </trkpt>
      <trkpt lat="43.45279" lon="6.42223">
        <ele>72</ele>
        <time>2018-05-02T11:55:44Z</time>
      </trkpt>
      <trkpt lat="43.45279" lon="6.42212">
        <ele>73</ele>
        <time>2018-05-02T11:55:52Z</time>
      </trkpt>
      <trkpt lat="43.45281" lon="6.42202">
        <ele>73</ele>
        <time>2018-05-02T11:55:57Z</time>
      </trkpt>
      <trkpt lat="43.45282" lon="6.42192">
        <ele>74</ele>
        <time>2018-05-02T11:56:06Z</time>
      </trkpt>
      <trkpt lat="43.45286" lon="6.42186">
        <ele>74</ele>
        <time>2018-05-02T11:56:11Z</time>
      </trkpt>
      <trkpt lat="43.45291" lon="6.4218">
        <ele>74</ele>
        <time>2018-05-02T11:56:19Z</time>
      </trkpt>
      <trkpt lat="43.45302" lon="6.42171">
        <ele>76</ele>
        <time>2018-05-02T11:56:29Z</time>
      </trkpt>
      <trkpt lat="43.45307" lon="6.42167">
        <ele>76</ele>
        <time>2018-05-02T11:56:33Z</time>
      </trkpt>
      <trkpt lat="43.4531" lon="6.4216">
        <ele>76</ele>
        <time>2018-05-02T11:56:37Z</time>
      </trkpt>
      <trkpt lat="43.4531" lon="6.4215">
        <ele>77</ele>
        <time>2018-05-02T11:56:43Z</time>
      </trkpt>
      <trkpt lat="43.45307" lon="6.42137">
        <ele>77</ele>
        <time>2018-05-02T11:56:50Z</time>
      </trkpt>
      <trkpt lat="43.45308" lon="6.42131">
        <ele>78</ele>
        <time>2018-05-02T11:56:54Z</time>
      </trkpt>
      <trkpt lat="43.45309" lon="6.42126">
        <ele>78</ele>
        <time>2018-05-02T11:56:58Z</time>
      </trkpt>
      <trkpt lat="43.45309" lon="6.42118">
        <ele>78</ele>
        <time>2018-05-02T11:57:03Z</time>
      </trkpt>
      <trkpt lat="43.45309" lon="6.42105">
        <ele>79</ele>
        <time>2018-05-02T11:57:12Z</time>
      </trkpt>
      <trkpt lat="43.45308" lon="6.42097">
        <ele>79</ele>
        <time>2018-05-02T11:57:18Z</time>
      </trkpt>
      <trkpt lat="43.45309" lon="6.42091">
        <ele>79</ele>
        <time>2018-05-02T11:57:22Z</time>
      </trkpt>
      <trkpt lat="43.45306" lon="6.42076">
        <ele>79</ele>
        <time>2018-05-02T11:57:38Z</time>
      </trkpt>
      <trkpt lat="43.45306" lon="6.42067">
        <ele>80</ele>
        <time>2018-05-02T11:57:42Z</time>
      </trkpt>
      <trkpt lat="43.45306" lon="6.42057">
        <ele>80</ele>
        <time>2018-05-02T11:57:50Z</time>
      </trkpt>
      <trkpt lat="43.45307" lon="6.4205">
        <ele>81</ele>
        <time>2018-05-02T11:57:56Z</time>
      </trkpt>
      <trkpt lat="43.45309" lon="6.42036">
        <ele>83</ele>
        <time>2018-05-02T11:58:08Z</time>
      </trkpt>
      <trkpt lat="43.45314" lon="6.4203">
        <ele>84</ele>
        <time>2018-05-02T11:58:14Z</time>
      </trkpt>
      <trkpt lat="43.45316" lon="6.42023">
        <ele>84</ele>
        <time>2018-05-02T11:58:20Z</time>
      </trkpt>
      <trkpt lat="43.4532" lon="6.42004">
        <ele>84</ele>
        <time>2018-05-02T11:58:35Z</time>
      </trkpt>
      <trkpt lat="43.45322" lon="6.41996">
        <ele>85</ele>
        <time>2018-05-02T11:58:40Z</time>
      </trkpt>
      <trkpt lat="43.45321" lon="6.4199">
        <ele>86</ele>
        <time>2018-05-02T11:58:46Z</time>
      </trkpt>
      <trkpt lat="43.45326" lon="6.41985">
        <ele>86</ele>
        <time>2018-05-02T11:58:54Z</time>
      </trkpt>
      <trkpt lat="43.45336" lon="6.41973">
        <ele>88</ele>
        <time>2018-05-02T11:59:10Z</time>
      </trkpt>
      <trkpt lat="43.45338" lon="6.41964">
        <ele>90</ele>
        <time>2018-05-02T11:59:20Z</time>
      </trkpt>
      <trkpt lat="43.45341" lon="6.41955">
        <ele>91</ele>
        <time>2018-05-02T11:59:28Z</time>
      </trkpt>
      <trkpt lat="43.4534" lon="6.41944">
        <ele>93</ele>
        <time>2018-05-02T11:59:39Z</time>
      </trkpt>
      <trkpt lat="43.45337" lon="6.41938">
        <ele>94</ele>
        <time>2018-05-02T11:59:44Z</time>
      </trkpt>
      <trkpt lat="43.45334" lon="6.41933">
        <ele>95</ele>
        <time>2018-05-02T11:59:49Z</time>
      </trkpt>
      <trkpt lat="43.45326" lon="6.41925">
        <ele>94</ele>
        <time>2018-05-02T12:00:01Z</time>
      </trkpt>
      <trkpt lat="43.45311" lon="6.41921">
        <ele>93</ele>
        <time>2018-05-02T12:00:13Z</time>
      </trkpt>
      <trkpt lat="43.45304" lon="6.4192">
        <ele>93</ele>
        <time>2018-05-02T12:00:18Z</time>
      </trkpt>
      <trkpt lat="43.45293" lon="6.41917">
        <ele>94</ele>
        <time>2018-05-02T12:00:28Z</time>
      </trkpt>
      <trkpt lat="43.45289" lon="6.41912">
        <ele>95</ele>
        <time>2018-05-02T12:00:34Z</time>
      </trkpt>
      <trkpt lat="43.45283" lon="6.41898">
        <ele>97</ele>
        <time>2018-05-02T12:00:44Z</time>
      </trkpt>
      <trkpt lat="43.45283" lon="6.41888">
        <ele>97</ele>
        <time>2018-05-02T12:01:03Z</time>
      </trkpt>
      <trkpt lat="43.45287" lon="6.41882">
        <ele>97</ele>
        <time>2018-05-02T12:01:10Z</time>
      </trkpt>
      <trkpt lat="43.45289" lon="6.41862">
        <ele>97</ele>
        <time>2018-05-02T12:01:27Z</time>
      </trkpt>
      <trkpt lat="43.45291" lon="6.41852">
        <ele>97</ele>
        <time>2018-05-02T12:01:38Z</time>
      </trkpt>
      <trkpt lat="43.45294" lon="6.41843">
        <ele>98</ele>
        <time>2018-05-02T12:02:01Z</time>
      </trkpt>
      <trkpt lat="43.45296" lon="6.41833">
        <ele>100</ele>
        <time>2018-05-02T12:02:15Z</time>
      </trkpt>
      <trkpt lat="43.45297" lon="6.41813">
        <ele>102</ele>
        <time>2018-05-02T12:02:31Z</time>
      </trkpt>
      <trkpt lat="43.45297" lon="6.41805">
        <ele>102</ele>
        <time>2018-05-02T12:02:36Z</time>
      </trkpt>
      <trkpt lat="43.45296" lon="6.41788">
        <ele>103</ele>
        <time>2018-05-02T12:02:50Z</time>
      </trkpt>
      <trkpt lat="43.45295" lon="6.41778">
        <ele>104</ele>
        <time>2018-05-02T12:02:57Z</time>
      </trkpt>
      <trkpt lat="43.45298" lon="6.4177">
        <ele>105</ele>
        <time>2018-05-02T12:03:15Z</time>
      </trkpt>
      <trkpt lat="43.45303" lon="6.41762">
        <ele>105</ele>
        <time>2018-05-02T12:03:30Z</time>
      </trkpt>
      <trkpt lat="43.45302" lon="6.41752">
        <ele>105</ele>
        <time>2018-05-02T12:03:39Z</time>
      </trkpt>
      <trkpt lat="43.45306" lon="6.41744">
        <ele>106</ele>
        <time>2018-05-02T12:03:50Z</time>
      </trkpt>
      <trkpt lat="43.453" lon="6.4174">
        <ele>105</ele>
        <time>2018-05-02T12:04:05Z</time>
      </trkpt>
      <trkpt lat="43.45289" lon="6.41739">
        <ele>105</ele>
        <time>2018-05-02T12:04:24Z</time>
      </trkpt>
      <trkpt lat="43.45283" lon="6.41738">
        <ele>104</ele>
        <time>2018-05-02T12:04:31Z</time>
      </trkpt>
      <trkpt lat="43.45277" lon="6.41737">
        <ele>104</ele>
        <time>2018-05-02T12:04:39Z</time>
      </trkpt>
      <trkpt lat="43.45272" lon="6.4174">
        <ele>104</ele>
        <time>2018-05-02T12:04:47Z</time>
      </trkpt>
      <trkpt lat="43.45254" lon="6.41747">
        <ele>107</ele>
        <time>2018-05-02T12:05:07Z</time>
      </trkpt>
      <trkpt lat="43.45247" lon="6.41744">
        <ele>108</ele>
        <time>2018-05-02T12:05:17Z</time>
      </trkpt>
      <trkpt lat="43.45235" lon="6.41742">
        <ele>109</ele>
        <time>2018-05-02T12:05:29Z</time>
      </trkpt>
      <trkpt lat="43.4523" lon="6.41739">
        <ele>111</ele>
        <time>2018-05-02T12:05:39Z</time>
      </trkpt>
      <trkpt lat="43.45224" lon="6.41741">
        <ele>111</ele>
        <time>2018-05-02T12:05:50Z</time>
      </trkpt>
      <trkpt lat="43.45218" lon="6.41746">
        <ele>112</ele>
        <time>2018-05-02T12:05:56Z</time>
      </trkpt>
      <trkpt lat="43.45212" lon="6.4175">
        <ele>112</ele>
        <time>2018-05-02T12:06:10Z</time>
      </trkpt>
      <trkpt lat="43.45205" lon="6.41756">
        <ele>112</ele>
        <time>2018-05-02T12:06:20Z</time>
      </trkpt>
      <trkpt lat="43.45199" lon="6.41763">
        <ele>112</ele>
        <time>2018-05-02T12:06:31Z</time>
      </trkpt>
      <trkpt lat="43.45193" lon="6.41769">
        <ele>112</ele>
        <time>2018-05-02T12:06:36Z</time>
      </trkpt>
      <trkpt lat="43.45195" lon="6.41779">
        <ele>113</ele>
        <time>2018-05-02T12:06:43Z</time>
      </trkpt>
      <trkpt lat="43.45193" lon="6.4179">
        <ele>114</ele>
        <time>2018-05-02T12:06:49Z</time>
      </trkpt>
      <trkpt lat="43.45192" lon="6.41799">
        <ele>115</ele>
        <time>2018-05-02T12:06:58Z</time>
      </trkpt>
      <trkpt lat="43.45188" lon="6.41808">
        <ele>117</ele>
        <time>2018-05-02T12:07:13Z</time>
      </trkpt>
      <trkpt lat="43.45185" lon="6.41814">
        <ele>118</ele>
        <time>2018-05-02T12:07:17Z</time>
      </trkpt>
      <trkpt lat="43.45181" lon="6.41821">
        <ele>119</ele>
        <time>2018-05-02T12:07:20Z</time>
      </trkpt>
      <trkpt lat="43.45178" lon="6.41828">
        <ele>120</ele>
        <time>2018-05-02T12:07:25Z</time>
      </trkpt>
      <trkpt lat="43.45176" lon="6.41839">
        <ele>121</ele>
        <time>2018-05-02T12:07:34Z</time>
      </trkpt>
      <trkpt lat="43.45178" lon="6.41856">
        <ele>123</ele>
        <time>2018-05-02T12:07:49Z</time>
      </trkpt>
      <trkpt lat="43.45175" lon="6.41863">
        <ele>124</ele>
        <time>2018-05-02T12:07:56Z</time>
      </trkpt>
      <trkpt lat="43.45172" lon="6.41882">
        <ele>125</ele>
        <time>2018-05-02T12:08:13Z</time>
      </trkpt>
      <trkpt lat="43.45168" lon="6.4189">
        <ele>125</ele>
        <time>2018-05-02T12:08:22Z</time>
      </trkpt>
      <trkpt lat="43.45156" lon="6.41897">
        <ele>125</ele>
        <time>2018-05-02T12:08:37Z</time>
      </trkpt>
      <trkpt lat="43.45151" lon="6.41899">
        <ele>126</ele>
        <time>2018-05-02T12:08:47Z</time>
      </trkpt>
      <trkpt lat="43.45145" lon="6.41897">
        <ele>128</ele>
        <time>2018-05-02T12:08:54Z</time>
      </trkpt>
      <trkpt lat="43.4514" lon="6.41892">
        <ele>130</ele>
        <time>2018-05-02T12:09:07Z</time>
      </trkpt>
      <trkpt lat="43.45124" lon="6.41885">
        <ele>136</ele>
        <time>2018-05-02T12:09:36Z</time>
      </trkpt>
      <trkpt lat="43.45121" lon="6.41878">
        <ele>137</ele>
        <time>2018-05-02T12:09:44Z</time>
      </trkpt>
      <trkpt lat="43.45117" lon="6.41874">
        <ele>140</ele>
        <time>2018-05-02T12:09:54Z</time>
      </trkpt>
      <trkpt lat="43.4511" lon="6.41873">
        <ele>141</ele>
        <time>2018-05-02T12:10:03Z</time>
      </trkpt>
      <trkpt lat="43.45108" lon="6.41872">
        <ele>147</ele>
        <time>2018-05-02T12:11:45Z</time>
      </trkpt>
      <trkpt lat="43.45104" lon="6.41865">
        <ele>149</ele>
        <time>2018-05-02T12:12:59Z</time>
      </trkpt>
      <trkpt lat="43.45098" lon="6.41849">
        <ele>152</ele>
        <time>2018-05-02T12:13:26Z</time>
      </trkpt>
      <trkpt lat="43.45097" lon="6.41841">
        <ele>152</ele>
        <time>2018-05-02T12:13:37Z</time>
      </trkpt>
      <trkpt lat="43.45094" lon="6.41837">
        <ele>152</ele>
        <time>2018-05-02T12:13:45Z</time>
      </trkpt>
      <trkpt lat="43.45091" lon="6.41831">
        <ele>153</ele>
        <time>2018-05-02T12:13:55Z</time>
      </trkpt>
      <trkpt lat="43.45089" lon="6.41821">
        <ele>155</ele>
        <time>2018-05-02T12:14:09Z</time>
      </trkpt>
      <trkpt lat="43.45085" lon="6.41816">
        <ele>156</ele>
        <time>2018-05-02T12:14:21Z</time>
      </trkpt>
      <trkpt lat="43.45079" lon="6.41815">
        <ele>158</ele>
        <time>2018-05-02T12:14:37Z</time>
      </trkpt>
      <trkpt lat="43.45073" lon="6.41808">
        <ele>159</ele>
        <time>2018-05-02T12:14:47Z</time>
      </trkpt>
      <trkpt lat="43.45074" lon="6.41797">
        <ele>161</ele>
        <time>2018-05-02T12:15:01Z</time>
      </trkpt>
      <trkpt lat="43.45072" lon="6.41789">
        <ele>161</ele>
        <time>2018-05-02T12:15:10Z</time>
      </trkpt>
      <trkpt lat="43.45072" lon="6.41781">
        <ele>163</ele>
        <time>2018-05-02T12:15:20Z</time>
      </trkpt>
      <trkpt lat="43.45067" lon="6.41775">
        <ele>164</ele>
        <time>2018-05-02T12:15:31Z</time>
      </trkpt>
      <trkpt lat="43.4506" lon="6.4177">
        <ele>165</ele>
        <time>2018-05-02T12:15:40Z</time>
      </trkpt>
      <trkpt lat="43.45055" lon="6.41764">
        <ele>165</ele>
        <time>2018-05-02T12:15:46Z</time>
      </trkpt>
      <trkpt lat="43.45051" lon="6.41755">
        <ele>167</ele>
        <time>2018-05-02T12:16:00Z</time>
      </trkpt>
      <trkpt lat="43.45049" lon="6.41747">
        <ele>169</ele>
        <time>2018-05-02T12:16:15Z</time>
      </trkpt>
      <trkpt lat="43.45046" lon="6.4174">
        <ele>170</ele>
        <time>2018-05-02T12:16:21Z</time>
      </trkpt>
      <trkpt lat="43.45049" lon="6.41733">
        <ele>172</ele>
        <time>2018-05-02T12:16:49Z</time>
      </trkpt>
      <trkpt lat="43.45054" lon="6.41737">
        <ele>173</ele>
        <time>2018-05-02T12:17:09Z</time>
      </trkpt>
      <trkpt lat="43.45057" lon="6.41731">
        <ele>172</ele>
        <time>2018-05-02T12:18:37Z</time>
      </trkpt>
      <trkpt lat="43.45053" lon="6.41725">
        <ele>173</ele>
        <time>2018-05-02T12:19:03Z</time>
      </trkpt>
      <trkpt lat="43.45047" lon="6.41725">
        <ele>177</ele>
        <time>2018-05-02T12:19:10Z</time>
      </trkpt>
      <trkpt lat="43.45044" lon="6.41731">
        <ele>177</ele>
        <time>2018-05-02T12:19:17Z</time>
      </trkpt>
      <trkpt lat="43.45039" lon="6.41736">
        <ele>178</ele>
        <time>2018-05-02T12:19:26Z</time>
      </trkpt>
      <trkpt lat="43.45037" lon="6.41725">
        <ele>178</ele>
        <time>2018-05-02T12:19:53Z</time>
      </trkpt>
      <trkpt lat="43.4504" lon="6.41719">
        <ele>179</ele>
        <time>2018-05-02T12:20:02Z</time>
      </trkpt>
      <trkpt lat="43.45038" lon="6.41711">
        <ele>179</ele>
        <time>2018-05-02T12:20:07Z</time>
      </trkpt>
      <trkpt lat="43.45038" lon="6.41703">
        <ele>180</ele>
        <time>2018-05-02T12:20:13Z</time>
      </trkpt>
      <trkpt lat="43.45041" lon="6.41695">
        <ele>180</ele>
        <time>2018-05-02T12:20:19Z</time>
      </trkpt>
      <trkpt lat="43.4504" lon="6.41687">
        <ele>180</ele>
        <time>2018-05-02T12:20:26Z</time>
      </trkpt>
      <trkpt lat="43.4504" lon="6.41673">
        <ele>180</ele>
        <time>2018-05-02T12:20:38Z</time>
      </trkpt>
      <trkpt lat="43.45044" lon="6.41658">
        <ele>181</ele>
        <time>2018-05-02T12:20:51Z</time>
      </trkpt>
      <trkpt lat="43.45047" lon="6.41652">
        <ele>182</ele>
        <time>2018-05-02T12:20:59Z</time>
      </trkpt>
      <trkpt lat="43.45048" lon="6.41637">
        <ele>183</ele>
        <time>2018-05-02T12:21:12Z</time>
      </trkpt>
      <trkpt lat="43.45047" lon="6.41627">
        <ele>183</ele>
        <time>2018-05-02T12:21:24Z</time>
      </trkpt>
      <trkpt lat="43.45042" lon="6.41613">
        <ele>184</ele>
        <time>2018-05-02T12:21:36Z</time>
      </trkpt>
      <trkpt lat="43.4504" lon="6.41605">
        <ele>184</ele>
        <time>2018-05-02T12:21:41Z</time>
      </trkpt>
      <trkpt lat="43.45043" lon="6.41598">
        <ele>184</ele>
        <time>2018-05-02T12:21:47Z</time>
      </trkpt>
      <trkpt lat="43.45045" lon="6.41591">
        <ele>185</ele>
        <time>2018-05-02T12:21:53Z</time>
      </trkpt>
      <trkpt lat="43.45057" lon="6.41579">
        <ele>186</ele>
        <time>2018-05-02T12:22:10Z</time>
      </trkpt>
      <trkpt lat="43.45066" lon="6.41561">
        <ele>187</ele>
        <time>2018-05-02T12:22:28Z</time>
      </trkpt>
      <trkpt lat="43.45067" lon="6.41555">
        <ele>188</ele>
        <time>2018-05-02T12:22:34Z</time>
      </trkpt>
      <trkpt lat="43.4507" lon="6.41548">
        <ele>188</ele>
        <time>2018-05-02T12:22:41Z</time>
      </trkpt>
      <trkpt lat="43.45077" lon="6.41538">
        <ele>189</ele>
        <time>2018-05-02T12:22:52Z</time>
      </trkpt>
      <trkpt lat="43.45081" lon="6.41536">
        <ele>189</ele>
        <time>2018-05-02T12:22:56Z</time>
      </trkpt>
      <trkpt lat="43.45085" lon="6.41534">
        <ele>189</ele>
        <time>2018-05-02T12:23:00Z</time>
      </trkpt>
      <trkpt lat="43.45095" lon="6.41529">
        <ele>190</ele>
        <time>2018-05-02T12:23:10Z</time>
      </trkpt>
      <trkpt lat="43.45124" lon="6.41513">
        <ele>191</ele>
        <time>2018-05-02T12:23:42Z</time>
      </trkpt>
      <trkpt lat="43.45136" lon="6.41484">
        <ele>192</ele>
        <time>2018-05-02T12:24:04Z</time>
      </trkpt>
      <trkpt lat="43.45145" lon="6.41465">
        <ele>193</ele>
        <time>2018-05-02T12:24:19Z</time>
      </trkpt>
      <trkpt lat="43.45149" lon="6.4146">
        <ele>193</ele>
        <time>2018-05-02T12:24:24Z</time>
      </trkpt>
      <trkpt lat="43.45153" lon="6.41455">
        <ele>193</ele>
        <time>2018-05-02T12:24:33Z</time>
      </trkpt>
      <trkpt lat="43.45176" lon="6.41441">
        <ele>194</ele>
        <time>2018-05-02T12:24:59Z</time>
      </trkpt>
      <trkpt lat="43.45182" lon="6.41435">
        <ele>194</ele>
        <time>2018-05-02T12:25:04Z</time>
      </trkpt>
      <trkpt lat="43.45187" lon="6.41424">
        <ele>194</ele>
        <time>2018-05-02T12:25:13Z</time>
      </trkpt>
      <trkpt lat="43.45196" lon="6.41412">
        <ele>194</ele>
        <time>2018-05-02T12:25:24Z</time>
      </trkpt>
      <trkpt lat="43.452" lon="6.41406">
        <ele>194</ele>
        <time>2018-05-02T12:25:31Z</time>
      </trkpt>
      <trkpt lat="43.45205" lon="6.41399">
        <ele>194</ele>
        <time>2018-05-02T12:25:38Z</time>
      </trkpt>
      <trkpt lat="43.45215" lon="6.41387">
        <ele>195</ele>
        <time>2018-05-02T12:25:52Z</time>
      </trkpt>
      <trkpt lat="43.45236" lon="6.41361">
        <ele>196</ele>
        <time>2018-05-02T12:26:25Z</time>
      </trkpt>
      <trkpt lat="43.45245" lon="6.4135">
        <ele>196</ele>
        <time>2018-05-02T12:26:38Z</time>
      </trkpt>
      <trkpt lat="43.45246" lon="6.41341">
        <ele>196</ele>
        <time>2018-05-02T12:26:58Z</time>
      </trkpt>
      <trkpt lat="43.45242" lon="6.41339">
        <ele>198</ele>
        <time>2018-05-02T12:28:04Z</time>
      </trkpt>
      <trkpt lat="43.45241" lon="6.41344">
        <ele>198</ele>
        <time>2018-05-02T12:28:15Z</time>
      </trkpt>
      <trkpt lat="43.45246" lon="6.41347">
        <ele>199</ele>
        <time>2018-05-02T12:29:42Z</time>
      </trkpt>
      <trkpt lat="43.45251" lon="6.41345">
        <ele>198</ele>
        <time>2018-05-02T12:29:51Z</time>
      </trkpt>
      <trkpt lat="43.45257" lon="6.41346">
        <ele>197</ele>
        <time>2018-05-02T12:30:01Z</time>
      </trkpt>
      <trkpt lat="43.4529" lon="6.41337">
        <ele>197</ele>
        <time>2018-05-02T12:30:31Z</time>
      </trkpt>
      <trkpt lat="43.45295" lon="6.41334">
        <ele>197</ele>
        <time>2018-05-02T12:30:36Z</time>
      </trkpt>
      <trkpt lat="43.45333" lon="6.41333">
        <ele>197</ele>
        <time>2018-05-02T12:31:11Z</time>
      </trkpt>
      <trkpt lat="43.45339" lon="6.41334">
        <ele>197</ele>
        <time>2018-05-02T12:31:16Z</time>
      </trkpt>
      <trkpt lat="43.45345" lon="6.41336">
        <ele>198</ele>
        <time>2018-05-02T12:31:20Z</time>
      </trkpt>
      <trkpt lat="43.45375" lon="6.41338">
        <ele>198</ele>
        <time>2018-05-02T12:31:52Z</time>
      </trkpt>
      <trkpt lat="43.45385" lon="6.41339">
        <ele>198</ele>
        <time>2018-05-02T12:32:02Z</time>
      </trkpt>
      <trkpt lat="43.45391" lon="6.4134">
        <ele>198</ele>
        <time>2018-05-02T12:32:06Z</time>
      </trkpt>
      <trkpt lat="43.45421" lon="6.41341">
        <ele>199</ele>
        <time>2018-05-02T12:32:36Z</time>
      </trkpt>
      <trkpt lat="43.45433" lon="6.41341">
        <ele>199</ele>
        <time>2018-05-02T12:32:50Z</time>
      </trkpt>
      <trkpt lat="43.45437" lon="6.41341">
        <ele>199</ele>
        <time>2018-05-02T12:32:56Z</time>
      </trkpt>
      <trkpt lat="43.45453" lon="6.41337">
        <ele>198</ele>
        <time>2018-05-02T12:33:10Z</time>
      </trkpt>
      <trkpt lat="43.45457" lon="6.41336">
        <ele>198</ele>
        <time>2018-05-02T12:33:14Z</time>
      </trkpt>
      <trkpt lat="43.45464" lon="6.4133">
        <ele>197</ele>
        <time>2018-05-02T12:33:22Z</time>
      </trkpt>
      <trkpt lat="43.4547" lon="6.41327">
        <ele>197</ele>
        <time>2018-05-02T12:33:28Z</time>
      </trkpt>
      <trkpt lat="43.4549" lon="6.41319">
        <ele>196</ele>
        <time>2018-05-02T12:33:47Z</time>
      </trkpt>
      <trkpt lat="43.45494" lon="6.41317">
        <ele>196</ele>
        <time>2018-05-02T12:33:49Z</time>
      </trkpt>
      <trkpt lat="43.45496" lon="6.41312">
        <ele>196</ele>
        <time>2018-05-02T12:33:55Z</time>
      </trkpt>
      <trkpt lat="43.45504" lon="6.41305">
        <ele>196</ele>
        <time>2018-05-02T12:34:16Z</time>
      </trkpt>
      <trkpt lat="43.4551" lon="6.41302">
        <ele>195</ele>
        <time>2018-05-02T12:34:21Z</time>
      </trkpt>
      <trkpt lat="43.4552" lon="6.41298">
        <ele>195</ele>
        <time>2018-05-02T12:34:30Z</time>
      </trkpt>
      <trkpt lat="43.45525" lon="6.41293">
        <ele>194</ele>
        <time>2018-05-02T12:34:40Z</time>
      </trkpt>
      <trkpt lat="43.4553" lon="6.4129">
        <ele>194</ele>
        <time>2018-05-02T12:34:49Z</time>
      </trkpt>
      <trkpt lat="43.45541" lon="6.41286">
        <ele>195</ele>
        <time>2018-05-02T12:34:58Z</time>
      </trkpt>
      <trkpt lat="43.45547" lon="6.41284">
        <ele>195</ele>
        <time>2018-05-02T12:35:03Z</time>
      </trkpt>
      <trkpt lat="43.45553" lon="6.41282">
        <ele>196</ele>
        <time>2018-05-02T12:35:08Z</time>
      </trkpt>
      <trkpt lat="43.45559" lon="6.4128">
        <ele>196</ele>
        <time>2018-05-02T12:35:16Z</time>
      </trkpt>
      <trkpt lat="43.45566" lon="6.41278">
        <ele>195</ele>
        <time>2018-05-02T12:35:23Z</time>
      </trkpt>
      <trkpt lat="43.45578" lon="6.41272">
        <ele>194</ele>
        <time>2018-05-02T12:35:42Z</time>
      </trkpt>
      <trkpt lat="43.45584" lon="6.41269">
        <ele>194</ele>
        <time>2018-05-02T12:35:48Z</time>
      </trkpt>
      <trkpt lat="43.45593" lon="6.41258">
        <ele>194</ele>
        <time>2018-05-02T12:35:56Z</time>
      </trkpt>
      <trkpt lat="43.45607" lon="6.41246">
        <ele>192</ele>
        <time>2018-05-02T12:36:14Z</time>
      </trkpt>
      <trkpt lat="43.45612" lon="6.4124">
        <ele>192</ele>
        <time>2018-05-02T12:36:22Z</time>
      </trkpt>
      <trkpt lat="43.45616" lon="6.41234">
        <ele>192</ele>
        <time>2018-05-02T12:36:28Z</time>
      </trkpt>
      <trkpt lat="43.45618" lon="6.41226">
        <ele>191</ele>
        <time>2018-05-02T12:36:35Z</time>
      </trkpt>
      <trkpt lat="43.4562" lon="6.41221">
        <ele>191</ele>
        <time>2018-05-02T12:36:39Z</time>
      </trkpt>
      <trkpt lat="43.45623" lon="6.41215">
        <ele>191</ele>
        <time>2018-05-02T12:36:43Z</time>
      </trkpt>
      <trkpt lat="43.45627" lon="6.41209">
        <ele>191</ele>
        <time>2018-05-02T12:36:49Z</time>
      </trkpt>
      <trkpt lat="43.45633" lon="6.41205">
        <ele>191</ele>
        <time>2018-05-02T12:36:56Z</time>
      </trkpt>
      <trkpt lat="43.45641" lon="6.41191">
        <ele>191</ele>
        <time>2018-05-02T12:37:09Z</time>
      </trkpt>
      <trkpt lat="43.4565" lon="6.41182">
        <ele>190</ele>
        <time>2018-05-02T12:37:19Z</time>
      </trkpt>
      <trkpt lat="43.45664" lon="6.41159">
        <ele>191</ele>
        <time>2018-05-02T12:37:44Z</time>
      </trkpt>
      <trkpt lat="43.45667" lon="6.41154">
        <ele>192</ele>
        <time>2018-05-02T12:37:52Z</time>
      </trkpt>
      <trkpt lat="43.45682" lon="6.41141">
        <ele>193</ele>
        <time>2018-05-02T12:38:10Z</time>
      </trkpt>
      <trkpt lat="43.45693" lon="6.41132">
        <ele>194</ele>
        <time>2018-05-02T12:38:22Z</time>
      </trkpt>
      <trkpt lat="43.45715" lon="6.41133">
        <ele>197</ele>
        <time>2018-05-02T12:38:50Z</time>
      </trkpt>
      <trkpt lat="43.4572" lon="6.41135">
        <ele>197</ele>
        <time>2018-05-02T12:38:54Z</time>
      </trkpt>
      <trkpt lat="43.45725" lon="6.41136">
        <ele>198</ele>
        <time>2018-05-02T12:39:01Z</time>
      </trkpt>
      <trkpt lat="43.45742" lon="6.41145">
        <ele>198</ele>
        <time>2018-05-02T12:39:16Z</time>
      </trkpt>
      <trkpt lat="43.4575" lon="6.41146">
        <ele>199</ele>
        <time>2018-05-02T12:39:21Z</time>
      </trkpt>
      <trkpt lat="43.45755" lon="6.41149">
        <ele>199</ele>
        <time>2018-05-02T12:39:30Z</time>
      </trkpt>
      <trkpt lat="43.45761" lon="6.4115">
        <ele>198</ele>
        <time>2018-05-02T12:39:38Z</time>
      </trkpt>
      <trkpt lat="43.45764" lon="6.41152">
        <ele>198</ele>
        <time>2018-05-02T12:39:42Z</time>
      </trkpt>
      <trkpt lat="43.45771" lon="6.41156">
        <ele>198</ele>
        <time>2018-05-02T12:39:49Z</time>
      </trkpt>
      <trkpt lat="43.45782" lon="6.41157">
        <ele>199</ele>
        <time>2018-05-02T12:39:58Z</time>
      </trkpt>
      <trkpt lat="43.45788" lon="6.41157">
        <ele>199</ele>
        <time>2018-05-02T12:40:07Z</time>
      </trkpt>
      <trkpt lat="43.45792" lon="6.41157">
        <ele>200</ele>
        <time>2018-05-02T12:40:11Z</time>
      </trkpt>
      <trkpt lat="43.45796" lon="6.41156">
        <ele>200</ele>
        <time>2018-05-02T12:40:14Z</time>
      </trkpt>
      <trkpt lat="43.45805" lon="6.41152">
        <ele>199</ele>
        <time>2018-05-02T12:40:22Z</time>
      </trkpt>
      <trkpt lat="43.45811" lon="6.41148">
        <ele>199</ele>
        <time>2018-05-02T12:40:29Z</time>
      </trkpt>
      <trkpt lat="43.45828" lon="6.4114">
        <ele>196</ele>
        <time>2018-05-02T12:40:44Z</time>
      </trkpt>
      <trkpt lat="43.45843" lon="6.41128">
        <ele>196</ele>
        <time>2018-05-02T12:41:01Z</time>
      </trkpt>
      <trkpt lat="43.45855" lon="6.41124">
        <ele>195</ele>
        <time>2018-05-02T12:41:12Z</time>
      </trkpt>
      <trkpt lat="43.45871" lon="6.41113">
        <ele>194</ele>
        <time>2018-05-02T12:41:30Z</time>
      </trkpt>
      <trkpt lat="43.45876" lon="6.41108">
        <ele>193</ele>
        <time>2018-05-02T12:41:36Z</time>
      </trkpt>
      <trkpt lat="43.45882" lon="6.41106">
        <ele>193</ele>
        <time>2018-05-02T12:41:42Z</time>
      </trkpt>
      <trkpt lat="43.45887" lon="6.41102">
        <ele>193</ele>
        <time>2018-05-02T12:41:47Z</time>
      </trkpt>
      <trkpt lat="43.45895" lon="6.41096">
        <ele>192</ele>
        <time>2018-05-02T12:41:57Z</time>
      </trkpt>
      <trkpt lat="43.45902" lon="6.41092">
        <ele>191</ele>
        <time>2018-05-02T12:42:06Z</time>
      </trkpt>
      <trkpt lat="43.45923" lon="6.4108">
        <ele>189</ele>
        <time>2018-05-02T12:42:25Z</time>
      </trkpt>
      <trkpt lat="43.45928" lon="6.41076">
        <ele>188</ele>
        <time>2018-05-02T12:42:31Z</time>
      </trkpt>
      <trkpt lat="43.45942" lon="6.41068">
        <ele>187</ele>
        <time>2018-05-02T12:42:45Z</time>
      </trkpt>
      <trkpt lat="43.45951" lon="6.41061">
        <ele>186</ele>
        <time>2018-05-02T12:42:57Z</time>
      </trkpt>
      <trkpt lat="43.45956" lon="6.41057">
        <ele>186</ele>
        <time>2018-05-02T12:43:01Z</time>
      </trkpt>
      <trkpt lat="43.45967" lon="6.41051">
        <ele>185</ele>
        <time>2018-05-02T12:43:13Z</time>
      </trkpt>
      <trkpt lat="43.4598" lon="6.41041">
        <ele>185</ele>
        <time>2018-05-02T12:43:28Z</time>
      </trkpt>
      <trkpt lat="43.45984" lon="6.4104">
        <ele>184</ele>
        <time>2018-05-02T12:43:32Z</time>
      </trkpt>
      <trkpt lat="43.4599" lon="6.41035">
        <ele>184</ele>
        <time>2018-05-02T12:43:41Z</time>
      </trkpt>
      <trkpt lat="43.46002" lon="6.4103">
        <ele>183</ele>
        <time>2018-05-02T12:44:10Z</time>
      </trkpt>
      <trkpt lat="43.45991" lon="6.41028">
        <ele>184</ele>
        <time>2018-05-02T12:44:23Z</time>
      </trkpt>
      <trkpt lat="43.45992" lon="6.41035">
        <ele>183</ele>
        <time>2018-05-02T12:44:46Z</time>
      </trkpt>
      <trkpt lat="43.46" lon="6.41035">
        <ele>183</ele>
        <time>2018-05-02T12:45:41Z</time>
      </trkpt>
      <trkpt lat="43.46005" lon="6.41032">
        <ele>183</ele>
        <time>2018-05-02T12:45:48Z</time>
      </trkpt>
      <trkpt lat="43.46017" lon="6.41022">
        <ele>182</ele>
        <time>2018-05-02T12:46:05Z</time>
      </trkpt>
      <trkpt lat="43.46022" lon="6.41018">
        <ele>181</ele>
        <time>2018-05-02T12:46:12Z</time>
      </trkpt>
      <trkpt lat="43.46028" lon="6.41015">
        <ele>181</ele>
        <time>2018-05-02T12:46:15Z</time>
      </trkpt>
      <trkpt lat="43.46038" lon="6.41004">
        <ele>180</ele>
        <time>2018-05-02T12:46:25Z</time>
      </trkpt>
      <trkpt lat="43.46039" lon="6.40995">
        <ele>180</ele>
        <time>2018-05-02T12:46:34Z</time>
      </trkpt>
      <trkpt lat="43.46049" lon="6.40972">
        <ele>177</ele>
        <time>2018-05-02T12:46:57Z</time>
      </trkpt>
      <trkpt lat="43.46052" lon="6.40963">
        <ele>175</ele>
        <time>2018-05-02T12:47:03Z</time>
      </trkpt>
      <trkpt lat="43.46057" lon="6.40948">
        <ele>176</ele>
        <time>2018-05-02T12:47:26Z</time>
      </trkpt>
      <trkpt lat="43.46064" lon="6.40944">
        <ele>176</ele>
        <time>2018-05-02T12:47:42Z</time>
      </trkpt>
      <trkpt lat="43.46069" lon="6.4094">
        <ele>176</ele>
        <time>2018-05-02T12:47:48Z</time>
      </trkpt>
      <trkpt lat="43.46071" lon="6.40931">
        <ele>176</ele>
        <time>2018-05-02T12:47:56Z</time>
      </trkpt>
      <trkpt lat="43.46073" lon="6.40926">
        <ele>176</ele>
        <time>2018-05-02T12:48:00Z</time>
      </trkpt>
      <trkpt lat="43.46073" lon="6.4091">
        <ele>175</ele>
        <time>2018-05-02T12:48:11Z</time>
      </trkpt>
      <trkpt lat="43.46074" lon="6.40902">
        <ele>175</ele>
        <time>2018-05-02T12:48:16Z</time>
      </trkpt>
      <trkpt lat="43.46079" lon="6.40877">
        <ele>173</ele>
        <time>2018-05-02T12:48:35Z</time>
      </trkpt>
      <trkpt lat="43.46079" lon="6.40866">
        <ele>173</ele>
        <time>2018-05-02T12:48:43Z</time>
      </trkpt>
      <trkpt lat="43.46082" lon="6.40859">
        <ele>172</ele>
        <time>2018-05-02T12:48:47Z</time>
      </trkpt>
      <trkpt lat="43.46083" lon="6.40852">
        <ele>172</ele>
        <time>2018-05-02T12:48:54Z</time>
      </trkpt>
      <trkpt lat="43.46083" lon="6.40842">
        <ele>172</ele>
        <time>2018-05-02T12:49:00Z</time>
      </trkpt>
      <trkpt lat="43.46086" lon="6.40835">
        <ele>172</ele>
        <time>2018-05-02T12:49:05Z</time>
      </trkpt>
      <trkpt lat="43.46091" lon="6.40826">
        <ele>172</ele>
        <time>2018-05-02T12:49:10Z</time>
      </trkpt>
      <trkpt lat="43.46094" lon="6.4082">
        <ele>171</ele>
        <time>2018-05-02T12:49:16Z</time>
      </trkpt>
      <trkpt lat="43.46098" lon="6.40814">
        <ele>171</ele>
        <time>2018-05-02T12:49:23Z</time>
      </trkpt>
      <trkpt lat="43.461" lon="6.40805">
        <ele>172</ele>
        <time>2018-05-02T12:49:29Z</time>
      </trkpt>
      <trkpt lat="43.46104" lon="6.40797">
        <ele>171</ele>
        <time>2018-05-02T12:49:35Z</time>
      </trkpt>
      <trkpt lat="43.46106" lon="6.40788">
        <ele>171</ele>
        <time>2018-05-02T12:49:41Z</time>
      </trkpt>
      <trkpt lat="43.46113" lon="6.40781">
        <ele>171</ele>
        <time>2018-05-02T12:49:48Z</time>
      </trkpt>
      <trkpt lat="43.4612" lon="6.40776">
        <ele>172</ele>
        <time>2018-05-02T12:49:56Z</time>
      </trkpt>
      <trkpt lat="43.46124" lon="6.40771">
        <ele>173</ele>
        <time>2018-05-02T12:50:02Z</time>
      </trkpt>
      <trkpt lat="43.46129" lon="6.40763">
        <ele>174</ele>
        <time>2018-05-02T12:50:11Z</time>
      </trkpt>
      <trkpt lat="43.46136" lon="6.40763">
        <ele>177</ele>
        <time>2018-05-02T12:50:19Z</time>
      </trkpt>
      <trkpt lat="43.46146" lon="6.40773">
        <ele>179</ele>
        <time>2018-05-02T12:50:29Z</time>
      </trkpt>
      <trkpt lat="43.4615" lon="6.40778">
        <ele>179</ele>
        <time>2018-05-02T12:50:34Z</time>
      </trkpt>
      <trkpt lat="43.46151" lon="6.40786">
        <ele>180</ele>
        <time>2018-05-02T12:50:40Z</time>
      </trkpt>
      <trkpt lat="43.46144" lon="6.40808">
        <ele>178</ele>
        <time>2018-05-02T12:50:59Z</time>
      </trkpt>
      <trkpt lat="43.46139" lon="6.40824">
        <ele>175</ele>
        <time>2018-05-02T12:51:10Z</time>
      </trkpt>
      <trkpt lat="43.46136" lon="6.40839">
        <ele>174</ele>
        <time>2018-05-02T12:51:19Z</time>
      </trkpt>
      <trkpt lat="43.46136" lon="6.40856">
        <ele>173</ele>
        <time>2018-05-02T12:51:27Z</time>
      </trkpt>
      <trkpt lat="43.46137" lon="6.40863">
        <ele>173</ele>
        <time>2018-05-02T12:51:34Z</time>
      </trkpt>
      <trkpt lat="43.4614" lon="6.40877">
        <ele>173</ele>
        <time>2018-05-02T12:51:43Z</time>
      </trkpt>
      <trkpt lat="43.46147" lon="6.40906">
        <ele>172</ele>
        <time>2018-05-02T12:52:02Z</time>
      </trkpt>
      <trkpt lat="43.46148" lon="6.40915">
        <ele>172</ele>
        <time>2018-05-02T12:52:09Z</time>
      </trkpt>
      <trkpt lat="43.46154" lon="6.40942">
        <ele>171</ele>
        <time>2018-05-02T12:52:29Z</time>
      </trkpt>
      <trkpt lat="43.46157" lon="6.40952">
        <ele>171</ele>
        <time>2018-05-02T12:52:34Z</time>
      </trkpt>
      <trkpt lat="43.46157" lon="6.40963">
        <ele>171</ele>
        <time>2018-05-02T12:52:41Z</time>
      </trkpt>
      <trkpt lat="43.46155" lon="6.40973">
        <ele>171</ele>
        <time>2018-05-02T12:52:48Z</time>
      </trkpt>
      <trkpt lat="43.46155" lon="6.40983">
        <ele>171</ele>
        <time>2018-05-02T12:52:56Z</time>
      </trkpt>
      <trkpt lat="43.46152" lon="6.41017">
        <ele>170</ele>
        <time>2018-05-02T12:53:18Z</time>
      </trkpt>
      <trkpt lat="43.46153" lon="6.41028">
        <ele>170</ele>
        <time>2018-05-02T12:53:23Z</time>
      </trkpt>
      <trkpt lat="43.46155" lon="6.41051">
        <ele>168</ele>
        <time>2018-05-02T12:53:43Z</time>
      </trkpt>
      <trkpt lat="43.46157" lon="6.41071">
        <ele>167</ele>
        <time>2018-05-02T12:53:56Z</time>
      </trkpt>
      <trkpt lat="43.46157" lon="6.41081">
        <ele>167</ele>
        <time>2018-05-02T12:54:00Z</time>
      </trkpt>
      <trkpt lat="43.46158" lon="6.41088">
        <ele>167</ele>
        <time>2018-05-02T12:54:04Z</time>
      </trkpt>
      <trkpt lat="43.4616" lon="6.41096">
        <ele>167</ele>
        <time>2018-05-02T12:54:09Z</time>
      </trkpt>
      <trkpt lat="43.46164" lon="6.41115">
        <ele>169</ele>
        <time>2018-05-02T12:54:21Z</time>
      </trkpt>
      <trkpt lat="43.46163" lon="6.41123">
        <ele>170</ele>
        <time>2018-05-02T12:54:26Z</time>
      </trkpt>
      <trkpt lat="43.46167" lon="6.41129">
        <ele>171</ele>
        <time>2018-05-02T12:54:31Z</time>
      </trkpt>
      <trkpt lat="43.46169" lon="6.41136">
        <ele>172</ele>
        <time>2018-05-02T12:54:37Z</time>
      </trkpt>
      <trkpt lat="43.4617" lon="6.41143">
        <ele>172</ele>
        <time>2018-05-02T12:54:41Z</time>
      </trkpt>
      <trkpt lat="43.46173" lon="6.41153">
        <ele>174</ele>
        <time>2018-05-02T12:54:48Z</time>
      </trkpt>
      <trkpt lat="43.46181" lon="6.41169">
        <ele>176</ele>
        <time>2018-05-02T12:54:59Z</time>
      </trkpt>
      <trkpt lat="43.46185" lon="6.41173">
        <ele>177</ele>
        <time>2018-05-02T12:55:04Z</time>
      </trkpt>
      <trkpt lat="43.4619" lon="6.41178">
        <ele>178</ele>
        <time>2018-05-02T12:55:12Z</time>
      </trkpt>
      <trkpt lat="43.4621" lon="6.41188">
        <ele>180</ele>
        <time>2018-05-02T12:55:27Z</time>
      </trkpt>
      <trkpt lat="43.46215" lon="6.41187">
        <ele>180</ele>
        <time>2018-05-02T12:55:31Z</time>
      </trkpt>
      <trkpt lat="43.46228" lon="6.41183">
        <ele>180</ele>
        <time>2018-05-02T12:55:43Z</time>
      </trkpt>
      <trkpt lat="43.46236" lon="6.41184">
        <ele>182</ele>
        <time>2018-05-02T12:55:51Z</time>
      </trkpt>
      <trkpt lat="43.46241" lon="6.41182">
        <ele>182</ele>
        <time>2018-05-02T12:55:54Z</time>
      </trkpt>
      <trkpt lat="43.46246" lon="6.4118">
        <ele>182</ele>
        <time>2018-05-02T12:55:59Z</time>
      </trkpt>
      <trkpt lat="43.46252" lon="6.41179">
        <ele>182</ele>
        <time>2018-05-02T12:56:04Z</time>
      </trkpt>
      <trkpt lat="43.46258" lon="6.41176">
        <ele>182</ele>
        <time>2018-05-02T12:56:08Z</time>
      </trkpt>
      <trkpt lat="43.46271" lon="6.41173">
        <ele>182</ele>
        <time>2018-05-02T12:56:18Z</time>
      </trkpt>
      <trkpt lat="43.46282" lon="6.41173">
        <ele>182</ele>
        <time>2018-05-02T12:56:29Z</time>
      </trkpt>
      <trkpt lat="43.46302" lon="6.41173">
        <ele>183</ele>
        <time>2018-05-02T12:56:47Z</time>
      </trkpt>
      <trkpt lat="43.46322" lon="6.41173">
        <ele>182</ele>
        <time>2018-05-02T12:57:07Z</time>
      </trkpt>
      <trkpt lat="43.46328" lon="6.41174">
        <ele>182</ele>
        <time>2018-05-02T12:57:11Z</time>
      </trkpt>
      <trkpt lat="43.4634" lon="6.41175">
        <ele>183</ele>
        <time>2018-05-02T12:57:25Z</time>
      </trkpt>
      <trkpt lat="43.46346" lon="6.41173">
        <ele>183</ele>
        <time>2018-05-02T12:57:30Z</time>
      </trkpt>
      <trkpt lat="43.46353" lon="6.41174">
        <ele>183</ele>
        <time>2018-05-02T12:57:35Z</time>
      </trkpt>
      <trkpt lat="43.46364" lon="6.41177">
        <ele>184</ele>
        <time>2018-05-02T12:57:46Z</time>
      </trkpt>
      <trkpt lat="43.464" lon="6.41168">
        <ele>183</ele>
        <time>2018-05-02T12:58:17Z</time>
      </trkpt>
      <trkpt lat="43.46412" lon="6.41161">
        <ele>182</ele>
        <time>2018-05-02T12:58:28Z</time>
      </trkpt>
      <trkpt lat="43.46414" lon="6.41155">
        <ele>180</ele>
        <time>2018-05-02T12:59:35Z</time>
      </trkpt>
      <trkpt lat="43.46422" lon="6.41151">
        <ele>179</ele>
        <time>2018-05-02T12:59:42Z</time>
      </trkpt>
      <trkpt lat="43.46427" lon="6.41147">
        <ele>179</ele>
        <time>2018-05-02T12:59:48Z</time>
      </trkpt>
      <trkpt lat="43.46435" lon="6.41141">
        <ele>179</ele>
        <time>2018-05-02T12:59:54Z</time>
      </trkpt>
      <trkpt lat="43.46465" lon="6.41114">
        <ele>179</ele>
        <time>2018-05-02T13:00:28Z</time>
      </trkpt>
      <trkpt lat="43.46469" lon="6.41111">
        <ele>179</ele>
        <time>2018-05-02T13:00:31Z</time>
      </trkpt>
      <trkpt lat="43.46474" lon="6.41109">
        <ele>178</ele>
        <time>2018-05-02T13:00:36Z</time>
      </trkpt>
      <trkpt lat="43.46479" lon="6.41105">
        <ele>178</ele>
        <time>2018-05-02T13:00:48Z</time>
      </trkpt>
      <trkpt lat="43.46485" lon="6.41106">
        <ele>177</ele>
        <time>2018-05-02T13:01:05Z</time>
      </trkpt>
      <trkpt lat="43.4649" lon="6.4111">
        <ele>177</ele>
        <time>2018-05-02T13:01:16Z</time>
      </trkpt>
      <trkpt lat="43.46495" lon="6.41111">
        <ele>177</ele>
        <time>2018-05-02T13:01:34Z</time>
      </trkpt>
      <trkpt lat="43.46498" lon="6.41117">
        <ele>177</ele>
        <time>2018-05-02T13:01:47Z</time>
      </trkpt>
      <trkpt lat="43.46501" lon="6.41121">
        <ele>177</ele>
        <time>2018-05-02T13:01:52Z</time>
      </trkpt>
      <trkpt lat="43.46504" lon="6.41128">
        <ele>177</ele>
        <time>2018-05-02T13:01:58Z</time>
      </trkpt>
      <trkpt lat="43.46521" lon="6.41142">
        <ele>177</ele>
        <time>2018-05-02T13:02:13Z</time>
      </trkpt>
      <trkpt lat="43.4653" lon="6.41148">
        <ele>177</ele>
        <time>2018-05-02T13:02:22Z</time>
      </trkpt>
      <trkpt lat="43.46535" lon="6.41153">
        <ele>177</ele>
        <time>2018-05-02T13:02:26Z</time>
      </trkpt>
      <trkpt lat="43.4655" lon="6.41166">
        <ele>177</ele>
        <time>2018-05-02T13:02:40Z</time>
      </trkpt>
      <trkpt lat="43.46559" lon="6.41174">
        <ele>176</ele>
        <time>2018-05-02T13:02:50Z</time>
      </trkpt>
      <trkpt lat="43.46576" lon="6.41177">
        <ele>176</ele>
        <time>2018-05-02T13:03:07Z</time>
      </trkpt>
      <trkpt lat="43.46588" lon="6.41174">
        <ele>176</ele>
        <time>2018-05-02T13:03:19Z</time>
      </trkpt>
      <trkpt lat="43.46606" lon="6.41167">
        <ele>175</ele>
        <time>2018-05-02T13:03:34Z</time>
      </trkpt>
      <trkpt lat="43.46611" lon="6.41163">
        <ele>175</ele>
        <time>2018-05-02T13:03:39Z</time>
      </trkpt>
      <trkpt lat="43.46616" lon="6.41159">
        <ele>175</ele>
        <time>2018-05-02T13:03:44Z</time>
      </trkpt>
      <trkpt lat="43.46621" lon="6.41155">
        <ele>175</ele>
        <time>2018-05-02T13:03:49Z</time>
      </trkpt>
      <trkpt lat="43.46625" lon="6.41153">
        <ele>174</ele>
        <time>2018-05-02T13:03:52Z</time>
      </trkpt>
      <trkpt lat="43.46633" lon="6.41155">
        <ele>174</ele>
        <time>2018-05-02T13:04:00Z</time>
      </trkpt>
      <trkpt lat="43.46636" lon="6.41163">
        <ele>173</ele>
        <time>2018-05-02T13:04:09Z</time>
      </trkpt>
      <trkpt lat="43.46638" lon="6.41171">
        <ele>172</ele>
        <time>2018-05-02T13:04:13Z</time>
      </trkpt>
      <trkpt lat="43.46639" lon="6.41176">
        <ele>171</ele>
        <time>2018-05-02T13:04:18Z</time>
      </trkpt>
      <trkpt lat="43.46641" lon="6.41183">
        <ele>171</ele>
        <time>2018-05-02T13:04:25Z</time>
      </trkpt>
      <trkpt lat="43.46645" lon="6.41189">
        <ele>170</ele>
        <time>2018-05-02T13:04:33Z</time>
      </trkpt>
      <trkpt lat="43.46648" lon="6.41196">
        <ele>169</ele>
        <time>2018-05-02T13:04:41Z</time>
      </trkpt>
      <trkpt lat="43.46652" lon="6.4121">
        <ele>167</ele>
        <time>2018-05-02T13:05:22Z</time>
      </trkpt>
      <trkpt lat="43.46663" lon="6.41235">
        <ele>165</ele>
        <time>2018-05-02T13:05:43Z</time>
      </trkpt>
      <trkpt lat="43.46666" lon="6.41238">
        <ele>163</ele>
        <time>2018-05-02T13:06:11Z</time>
      </trkpt>
      <trkpt lat="43.46667" lon="6.41234">
        <ele>161</ele>
        <time>2018-05-02T13:07:08Z</time>
      </trkpt>
      <trkpt lat="43.46666" lon="6.41236">
        <ele>159</ele>
        <time>2018-05-02T13:09:30Z</time>
      </trkpt>
      <trkpt lat="43.46675" lon="6.41237">
        <ele>159</ele>
        <time>2018-05-02T13:09:40Z</time>
      </trkpt>
      <trkpt lat="43.46681" lon="6.41236">
        <ele>160</ele>
        <time>2018-05-02T13:09:55Z</time>
      </trkpt>
      <trkpt lat="43.46686" lon="6.41232">
        <ele>160</ele>
        <time>2018-05-02T13:09:59Z</time>
      </trkpt>
      <trkpt lat="43.467" lon="6.41223">
        <ele>160</ele>
        <time>2018-05-02T13:10:13Z</time>
      </trkpt>
      <trkpt lat="43.46711" lon="6.41214">
        <ele>160</ele>
        <time>2018-05-02T13:10:23Z</time>
      </trkpt>
      <trkpt lat="43.46744" lon="6.41196">
        <ele>159</ele>
        <time>2018-05-02T13:10:54Z</time>
      </trkpt>
      <trkpt lat="43.46779" lon="6.4117">
        <ele>159</ele>
        <time>2018-05-02T13:11:27Z</time>
      </trkpt>
      <trkpt lat="43.46784" lon="6.41168">
        <ele>159</ele>
        <time>2018-05-02T13:11:33Z</time>
      </trkpt>
      <trkpt lat="43.46795" lon="6.41159">
        <ele>159</ele>
        <time>2018-05-02T13:11:44Z</time>
      </trkpt>
      <trkpt lat="43.46799" lon="6.41156">
        <ele>159</ele>
        <time>2018-05-02T13:11:47Z</time>
      </trkpt>
      <trkpt lat="43.4683" lon="6.41132">
        <ele>156</ele>
        <time>2018-05-02T13:12:20Z</time>
      </trkpt>
      <trkpt lat="43.46836" lon="6.41126">
        <ele>156</ele>
        <time>2018-05-02T13:12:27Z</time>
      </trkpt>
      <trkpt lat="43.46851" lon="6.41119">
        <ele>157</ele>
        <time>2018-05-02T13:12:42Z</time>
      </trkpt>
      <trkpt lat="43.46858" lon="6.41115">
        <ele>157</ele>
        <time>2018-05-02T13:12:47Z</time>
      </trkpt>
      <trkpt lat="43.46871" lon="6.4111">
        <ele>156</ele>
        <time>2018-05-02T13:13:02Z</time>
      </trkpt>
      <trkpt lat="43.46878" lon="6.41109">
        <ele>156</ele>
        <time>2018-05-02T13:13:06Z</time>
      </trkpt>
      <trkpt lat="43.46884" lon="6.41107">
        <ele>155</ele>
        <time>2018-05-02T13:13:13Z</time>
      </trkpt>
      <trkpt lat="43.4689" lon="6.41104">
        <ele>155</ele>
        <time>2018-05-02T13:13:18Z</time>
      </trkpt>
      <trkpt lat="43.46895" lon="6.41101">
        <ele>155</ele>
        <time>2018-05-02T13:13:23Z</time>
      </trkpt>
      <trkpt lat="43.46902" lon="6.411">
        <ele>155</ele>
        <time>2018-05-02T13:13:31Z</time>
      </trkpt>
      <trkpt lat="43.46918" lon="6.41102">
        <ele>155</ele>
        <time>2018-05-02T13:13:42Z</time>
      </trkpt>
      <trkpt lat="43.46925" lon="6.41106">
        <ele>155</ele>
        <time>2018-05-02T13:13:49Z</time>
      </trkpt>
      <trkpt lat="43.46929" lon="6.41112">
        <ele>156</ele>
        <time>2018-05-02T13:13:56Z</time>
      </trkpt>
      <trkpt lat="43.46937" lon="6.41112">
        <ele>156</ele>
        <time>2018-05-02T13:14:02Z</time>
      </trkpt>
      <trkpt lat="43.46942" lon="6.41106">
        <ele>157</ele>
        <time>2018-05-02T13:14:09Z</time>
      </trkpt>
      <trkpt lat="43.46945" lon="6.411">
        <ele>157</ele>
        <time>2018-05-02T13:14:15Z</time>
      </trkpt>
      <trkpt lat="43.46948" lon="6.41093">
        <ele>156</ele>
        <time>2018-05-02T13:14:22Z</time>
      </trkpt>
      <trkpt lat="43.46977" lon="6.41064">
        <ele>152</ele>
        <time>2018-05-02T13:14:57Z</time>
      </trkpt>
      <trkpt lat="43.46995" lon="6.41059">
        <ele>149</ele>
        <time>2018-05-02T13:15:18Z</time>
      </trkpt>
      <trkpt lat="43.47001" lon="6.41058">
        <ele>149</ele>
        <time>2018-05-02T13:15:23Z</time>
      </trkpt>
      <trkpt lat="43.47018" lon="6.41054">
        <ele>147</ele>
        <time>2018-05-02T13:15:39Z</time>
      </trkpt>
      <trkpt lat="43.47048" lon="6.41053">
        <ele>144</ele>
        <time>2018-05-02T13:16:09Z</time>
      </trkpt>
      <trkpt lat="43.47056" lon="6.41052">
        <ele>142</ele>
        <time>2018-05-02T13:16:18Z</time>
      </trkpt>
      <trkpt lat="43.47061" lon="6.41053">
        <ele>142</ele>
        <time>2018-05-02T13:16:23Z</time>
      </trkpt>
      <trkpt lat="43.47067" lon="6.41053">
        <ele>140</ele>
        <time>2018-05-02T13:16:29Z</time>
      </trkpt>
      <trkpt lat="43.47073" lon="6.41051">
        <ele>140</ele>
        <time>2018-05-02T13:16:34Z</time>
      </trkpt>
      <trkpt lat="43.47079" lon="6.41051">
        <ele>139</ele>
        <time>2018-05-02T13:16:40Z</time>
      </trkpt>
      <trkpt lat="43.47098" lon="6.41049">
        <ele>137</ele>
        <time>2018-05-02T13:16:58Z</time>
      </trkpt>
      <trkpt lat="43.47104" lon="6.41049">
        <ele>136</ele>
        <time>2018-05-02T13:17:06Z</time>
      </trkpt>
      <trkpt lat="43.47124" lon="6.41046">
        <ele>133</ele>
        <time>2018-05-02T13:17:23Z</time>
      </trkpt>
      <trkpt lat="43.47129" lon="6.41045">
        <ele>132</ele>
        <time>2018-05-02T13:17:33Z</time>
      </trkpt>
      <trkpt lat="43.47137" lon="6.41042">
        <ele>132</ele>
        <time>2018-05-02T13:17:39Z</time>
      </trkpt>
      <trkpt lat="43.4715" lon="6.41042">
        <ele>130</ele>
        <time>2018-05-02T13:17:53Z</time>
      </trkpt>
      <trkpt lat="43.47169" lon="6.41042">
        <ele>128</ele>
        <time>2018-05-02T13:18:14Z</time>
      </trkpt>
      <trkpt lat="43.47175" lon="6.41042">
        <ele>127</ele>
        <time>2018-05-02T13:18:25Z</time>
      </trkpt>
      <trkpt lat="43.47194" lon="6.41034">
        <ele>125</ele>
        <time>2018-05-02T13:18:43Z</time>
      </trkpt>
      <trkpt lat="43.47222" lon="6.41037">
        <ele>122</ele>
        <time>2018-05-02T13:19:14Z</time>
      </trkpt>
      <trkpt lat="43.47227" lon="6.41041">
        <ele>121</ele>
        <time>2018-05-02T13:19:22Z</time>
      </trkpt>
      <trkpt lat="43.47242" lon="6.41059">
        <ele>117</ele>
        <time>2018-05-02T13:19:46Z</time>
      </trkpt>
      <trkpt lat="43.47248" lon="6.41073">
        <ele>115</ele>
        <time>2018-05-02T13:20:00Z</time>
      </trkpt>
      <trkpt lat="43.47249" lon="6.41082">
        <ele>114</ele>
        <time>2018-05-02T13:20:09Z</time>
      </trkpt>
      <trkpt lat="43.47245" lon="6.41092">
        <ele>112</ele>
        <time>2018-05-02T13:20:22Z</time>
      </trkpt>
      <trkpt lat="43.47235" lon="6.41112">
        <ele>107</ele>
        <time>2018-05-02T13:20:40Z</time>
      </trkpt>
      <trkpt lat="43.47232" lon="6.41117">
        <ele>107</ele>
        <time>2018-05-02T13:20:47Z</time>
      </trkpt>
      <trkpt lat="43.47227" lon="6.4114">
        <ele>103</ele>
        <time>2018-05-02T13:21:09Z</time>
      </trkpt>
      <trkpt lat="43.47223" lon="6.41161">
        <ele>101</ele>
        <time>2018-05-02T13:21:25Z</time>
      </trkpt>
      <trkpt lat="43.47219" lon="6.41177">
        <ele>100</ele>
        <time>2018-05-02T13:21:41Z</time>
      </trkpt>
      <trkpt lat="43.47214" lon="6.41191">
        <ele>97</ele>
        <time>2018-05-02T13:21:51Z</time>
      </trkpt>
      <trkpt lat="43.47208" lon="6.41215">
        <ele>96</ele>
        <time>2018-05-02T13:22:08Z</time>
      </trkpt>
      <trkpt lat="43.4721" lon="6.4123">
        <ele>95</ele>
        <time>2018-05-02T13:22:22Z</time>
      </trkpt>
      <trkpt lat="43.47209" lon="6.41242">
        <ele>94</ele>
        <time>2018-05-02T13:22:33Z</time>
      </trkpt>
      <trkpt lat="43.47212" lon="6.41249">
        <ele>92</ele>
        <time>2018-05-02T13:22:50Z</time>
      </trkpt>
      <trkpt lat="43.47211" lon="6.41257">
        <ele>92</ele>
        <time>2018-05-02T13:23:16Z</time>
      </trkpt>
      <trkpt lat="43.47218" lon="6.4126">
        <ele>92</ele>
        <time>2018-05-02T13:23:45Z</time>
      </trkpt>
      <trkpt lat="43.4722" lon="6.41268">
        <ele>90</ele>
        <time>2018-05-02T13:23:54Z</time>
      </trkpt>
      <trkpt lat="43.47221" lon="6.41278">
        <ele>90</ele>
        <time>2018-05-02T13:24:02Z</time>
      </trkpt>
      <trkpt lat="43.47221" lon="6.41287">
        <ele>89</ele>
        <time>2018-05-02T13:24:13Z</time>
      </trkpt>
      <trkpt lat="43.47224" lon="6.41304">
        <ele>90</ele>
        <time>2018-05-02T13:24:28Z</time>
      </trkpt>
      <trkpt lat="43.47227" lon="6.41313">
        <ele>90</ele>
        <time>2018-05-02T13:24:37Z</time>
      </trkpt>
      <trkpt lat="43.47227" lon="6.41322">
        <ele>89</ele>
        <time>2018-05-02T13:24:44Z</time>
      </trkpt>
      <trkpt lat="43.47227" lon="6.41334">
        <ele>90</ele>
        <time>2018-05-02T13:24:50Z</time>
      </trkpt>
      <trkpt lat="43.4723" lon="6.41349">
        <ele>90</ele>
        <time>2018-05-02T13:25:00Z</time>
      </trkpt>
      <trkpt lat="43.47233" lon="6.41356">
        <ele>90</ele>
        <time>2018-05-02T13:25:06Z</time>
      </trkpt>
      <trkpt lat="43.47237" lon="6.41361">
        <ele>91</ele>
        <time>2018-05-02T13:25:10Z</time>
      </trkpt>
      <trkpt lat="43.4725" lon="6.41372">
        <ele>92</ele>
        <time>2018-05-02T13:25:25Z</time>
      </trkpt>
      <trkpt lat="43.47255" lon="6.41375">
        <ele>93</ele>
        <time>2018-05-02T13:25:31Z</time>
      </trkpt>
      <trkpt lat="43.47271" lon="6.41385">
        <ele>94</ele>
        <time>2018-05-02T13:25:52Z</time>
      </trkpt>
      <trkpt lat="43.47289" lon="6.41397">
        <ele>96</ele>
        <time>2018-05-02T13:26:14Z</time>
      </trkpt>
      <trkpt lat="43.47294" lon="6.414">
        <ele>97</ele>
        <time>2018-05-02T13:26:19Z</time>
      </trkpt>
      <trkpt lat="43.47299" lon="6.41404">
        <ele>97</ele>
        <time>2018-05-02T13:26:26Z</time>
      </trkpt>
      <trkpt lat="43.47309" lon="6.41412">
        <ele>98</ele>
        <time>2018-05-02T13:26:34Z</time>
      </trkpt>
      <trkpt lat="43.47314" lon="6.41415">
        <ele>99</ele>
        <time>2018-05-02T13:26:40Z</time>
      </trkpt>
      <trkpt lat="43.47322" lon="6.4142">
        <ele>99</ele>
        <time>2018-05-02T13:26:48Z</time>
      </trkpt>
      <trkpt lat="43.47331" lon="6.41434">
        <ele>100</ele>
        <time>2018-05-02T13:27:04Z</time>
      </trkpt>
      <trkpt lat="43.47335" lon="6.4144">
        <ele>100</ele>
        <time>2018-05-02T13:27:09Z</time>
      </trkpt>
      <trkpt lat="43.4734" lon="6.41445">
        <ele>100</ele>
        <time>2018-05-02T13:27:16Z</time>
      </trkpt>
      <trkpt lat="43.47343" lon="6.41451">
        <ele>100</ele>
        <time>2018-05-02T13:27:21Z</time>
      </trkpt>
      <trkpt lat="43.47352" lon="6.41462">
        <ele>100</ele>
        <time>2018-05-02T13:27:32Z</time>
      </trkpt>
      <trkpt lat="43.47357" lon="6.41468">
        <ele>100</ele>
        <time>2018-05-02T13:27:40Z</time>
      </trkpt>
      <trkpt lat="43.47369" lon="6.41474">
        <ele>99</ele>
        <time>2018-05-02T13:27:52Z</time>
      </trkpt>
      <trkpt lat="43.47375" lon="6.41476">
        <ele>99</ele>
        <time>2018-05-02T13:27:58Z</time>
      </trkpt>
      <trkpt lat="43.47381" lon="6.41481">
        <ele>99</ele>
        <time>2018-05-02T13:28:24Z</time>
      </trkpt>
      <trkpt lat="43.47387" lon="6.4149">
        <ele>98</ele>
        <time>2018-05-02T13:28:33Z</time>
      </trkpt>
      <trkpt lat="43.47397" lon="6.41505">
        <ele>98</ele>
        <time>2018-05-02T13:28:47Z</time>
      </trkpt>
      <trkpt lat="43.47404" lon="6.41508">
        <ele>99</ele>
        <time>2018-05-02T13:29:00Z</time>
      </trkpt>
      <trkpt lat="43.47412" lon="6.41513">
        <ele>99</ele>
        <time>2018-05-02T13:29:22Z</time>
      </trkpt>
      <trkpt lat="43.47437" lon="6.41529">
        <ele>102</ele>
        <time>2018-05-02T13:29:49Z</time>
      </trkpt>
      <trkpt lat="43.47442" lon="6.41536">
        <ele>103</ele>
        <time>2018-05-02T13:30:01Z</time>
      </trkpt>
      <trkpt lat="43.4744" lon="6.41544">
        <ele>103</ele>
        <time>2018-05-02T13:30:08Z</time>
      </trkpt>
      <trkpt lat="43.47432" lon="6.41542">
        <ele>103</ele>
        <time>2018-05-02T13:30:17Z</time>
      </trkpt>
      <trkpt lat="43.47424" lon="6.4154">
        <ele>103</ele>
        <time>2018-05-02T13:30:20Z</time>
      </trkpt>
      <trkpt lat="43.47417" lon="6.41538">
        <ele>103</ele>
        <time>2018-05-02T13:30:29Z</time>
      </trkpt>
      <trkpt lat="43.47409" lon="6.41535">
        <ele>103</ele>
        <time>2018-05-02T13:30:34Z</time>
      </trkpt>
      <trkpt lat="43.47395" lon="6.41526">
        <ele>103</ele>
        <time>2018-05-02T13:30:47Z</time>
      </trkpt>
      <trkpt lat="43.4739" lon="6.41526">
        <ele>103</ele>
        <time>2018-05-02T13:30:54Z</time>
      </trkpt>
      <trkpt lat="43.47389" lon="6.41534">
        <ele>103</ele>
        <time>2018-05-02T13:31:00Z</time>
      </trkpt>
      <trkpt lat="43.47399" lon="6.41545">
        <ele>103</ele>
        <time>2018-05-02T13:31:12Z</time>
      </trkpt>
      <trkpt lat="43.47405" lon="6.4155">
        <ele>104</ele>
        <time>2018-05-02T13:31:20Z</time>
      </trkpt>
      <trkpt lat="43.4741" lon="6.41554">
        <ele>105</ele>
        <time>2018-05-02T13:31:25Z</time>
      </trkpt>
      <trkpt lat="43.47422" lon="6.41578">
        <ele>108</ele>
        <time>2018-05-02T13:31:46Z</time>
      </trkpt>
      <trkpt lat="43.47428" lon="6.41601">
        <ele>110</ele>
        <time>2018-05-02T13:32:02Z</time>
      </trkpt>
      <trkpt lat="43.4743" lon="6.41632">
        <ele>112</ele>
        <time>2018-05-02T13:32:24Z</time>
      </trkpt>
      <trkpt lat="43.47432" lon="6.41641">
        <ele>113</ele>
        <time>2018-05-02T13:32:31Z</time>
      </trkpt>
      <trkpt lat="43.47434" lon="6.41649">
        <ele>114</ele>
        <time>2018-05-02T13:32:38Z</time>
      </trkpt>
      <trkpt lat="43.47435" lon="6.41658">
        <ele>116</ele>
        <time>2018-05-02T13:32:44Z</time>
      </trkpt>
      <trkpt lat="43.47434" lon="6.41668">
        <ele>116</ele>
        <time>2018-05-02T13:32:51Z</time>
      </trkpt>
      <trkpt lat="43.47436" lon="6.4168">
        <ele>119</ele>
        <time>2018-05-02T13:33:23Z</time>
      </trkpt>
      <trkpt lat="43.47433" lon="6.41674">
        <ele>121</ele>
        <time>2018-05-02T13:34:34Z</time>
      </trkpt>
      <trkpt lat="43.4744" lon="6.4167">
        <ele>124</ele>
        <time>2018-05-02T13:35:23Z</time>
      </trkpt>
      <trkpt lat="43.47429" lon="6.41668">
        <ele>123</ele>
        <time>2018-05-02T13:40:40Z</time>
      </trkpt>
      <trkpt lat="43.47413" lon="6.41665">
        <ele>124</ele>
        <time>2018-05-02T13:41:04Z</time>
      </trkpt>
      <trkpt lat="43.47389" lon="6.41671">
        <ele>126</ele>
        <time>2018-05-02T13:41:28Z</time>
      </trkpt>
      <trkpt lat="43.47383" lon="6.41674">
        <ele>126</ele>
        <time>2018-05-02T13:41:35Z</time>
      </trkpt>
      <trkpt lat="43.47376" lon="6.41679">
        <ele>125</ele>
        <time>2018-05-02T13:41:44Z</time>
      </trkpt>
      <trkpt lat="43.47368" lon="6.4168">
        <ele>124</ele>
        <time>2018-05-02T13:41:51Z</time>
      </trkpt>
      <trkpt lat="43.4736" lon="6.41683">
        <ele>124</ele>
        <time>2018-05-02T13:41:59Z</time>
      </trkpt>
      <trkpt lat="43.47352" lon="6.41686">
        <ele>123</ele>
        <time>2018-05-02T13:42:07Z</time>
      </trkpt>
      <trkpt lat="43.47338" lon="6.4169">
        <ele>122</ele>
        <time>2018-05-02T13:42:19Z</time>
      </trkpt>
      <trkpt lat="43.47332" lon="6.41691">
        <ele>122</ele>
        <time>2018-05-02T13:42:27Z</time>
      </trkpt>
      <trkpt lat="43.4731" lon="6.41695">
        <ele>121</ele>
        <time>2018-05-02T13:42:48Z</time>
      </trkpt>
      <trkpt lat="43.47301" lon="6.41698">
        <ele>120</ele>
        <time>2018-05-02T13:43:07Z</time>
      </trkpt>
      <trkpt lat="43.4729" lon="6.41699">
        <ele>119</ele>
        <time>2018-05-02T13:43:18Z</time>
      </trkpt>
      <trkpt lat="43.47283" lon="6.41699">
        <ele>119</ele>
        <time>2018-05-02T13:43:26Z</time>
      </trkpt>
      <trkpt lat="43.47266" lon="6.41703">
        <ele>117</ele>
        <time>2018-05-02T13:43:42Z</time>
      </trkpt>
      <trkpt lat="43.47258" lon="6.41705">
        <ele>116</ele>
        <time>2018-05-02T13:43:50Z</time>
      </trkpt>
      <trkpt lat="43.4725" lon="6.41704">
        <ele>116</ele>
        <time>2018-05-02T13:43:59Z</time>
      </trkpt>
      <trkpt lat="43.47221" lon="6.41705">
        <ele>117</ele>
        <time>2018-05-02T13:44:32Z</time>
      </trkpt>
      <trkpt lat="43.47213" lon="6.41705">
        <ele>117</ele>
        <time>2018-05-02T13:44:36Z</time>
      </trkpt>
      <trkpt lat="43.47198" lon="6.41704">
        <ele>117</ele>
        <time>2018-05-02T13:44:45Z</time>
      </trkpt>
      <trkpt lat="43.47181" lon="6.41703">
        <ele>118</ele>
        <time>2018-05-02T13:45:02Z</time>
      </trkpt>
      <trkpt lat="43.47159" lon="6.41697">
        <ele>117</ele>
        <time>2018-05-02T13:45:23Z</time>
      </trkpt>
      <trkpt lat="43.47153" lon="6.41692">
        <ele>117</ele>
        <time>2018-05-02T13:45:28Z</time>
      </trkpt>
      <trkpt lat="43.47139" lon="6.4169">
        <ele>118</ele>
        <time>2018-05-02T13:45:41Z</time>
      </trkpt>
      <trkpt lat="43.47132" lon="6.41688">
        <ele>119</ele>
        <time>2018-05-02T13:45:48Z</time>
      </trkpt>
      <trkpt lat="43.47121" lon="6.41681">
        <ele>119</ele>
        <time>2018-05-02T13:46:03Z</time>
      </trkpt>
      <trkpt lat="43.47098" lon="6.41676">
        <ele>119</ele>
        <time>2018-05-02T13:46:24Z</time>
      </trkpt>
      <trkpt lat="43.47092" lon="6.41671">
        <ele>120</ele>
        <time>2018-05-02T13:46:30Z</time>
      </trkpt>
      <trkpt lat="43.47085" lon="6.41667">
        <ele>120</ele>
        <time>2018-05-02T13:46:35Z</time>
      </trkpt>
      <trkpt lat="43.47073" lon="6.4165">
        <ele>119</ele>
        <time>2018-05-02T13:46:51Z</time>
      </trkpt>
      <trkpt lat="43.47068" lon="6.41643">
        <ele>119</ele>
        <time>2018-05-02T13:46:57Z</time>
      </trkpt>
      <trkpt lat="43.47059" lon="6.41627">
        <ele>118</ele>
        <time>2018-05-02T13:47:09Z</time>
      </trkpt>
      <trkpt lat="43.47058" lon="6.4162">
        <ele>119</ele>
        <time>2018-05-02T13:47:16Z</time>
      </trkpt>
      <trkpt lat="43.47057" lon="6.41612">
        <ele>119</ele>
        <time>2018-05-02T13:47:23Z</time>
      </trkpt>
      <trkpt lat="43.4705" lon="6.41591">
        <ele>118</ele>
        <time>2018-05-02T13:47:40Z</time>
      </trkpt>
      <trkpt lat="43.47048" lon="6.41583">
        <ele>118</ele>
        <time>2018-05-02T13:47:47Z</time>
      </trkpt>
      <trkpt lat="43.47044" lon="6.41577">
        <ele>117</ele>
        <time>2018-05-02T13:47:54Z</time>
      </trkpt>
      <trkpt lat="43.47037" lon="6.41572">
        <ele>117</ele>
        <time>2018-05-02T13:48:02Z</time>
      </trkpt>
      <trkpt lat="43.47029" lon="6.41587">
        <ele>116</ele>
        <time>2018-05-02T13:48:12Z</time>
      </trkpt>
      <trkpt lat="43.47023" lon="6.416">
        <ele>115</ele>
        <time>2018-05-02T13:48:21Z</time>
      </trkpt>
      <trkpt lat="43.47021" lon="6.41607">
        <ele>114</ele>
        <time>2018-05-02T13:48:27Z</time>
      </trkpt>
      <trkpt lat="43.4702" lon="6.41614">
        <ele>114</ele>
        <time>2018-05-02T13:48:33Z</time>
      </trkpt>
      <trkpt lat="43.47013" lon="6.41629">
        <ele>114</ele>
        <time>2018-05-02T13:48:43Z</time>
      </trkpt>
      <trkpt lat="43.4701" lon="6.41636">
        <ele>114</ele>
        <time>2018-05-02T13:48:50Z</time>
      </trkpt>
      <trkpt lat="43.47006" lon="6.41643">
        <ele>113</ele>
        <time>2018-05-02T13:48:56Z</time>
      </trkpt>
      <trkpt lat="43.47003" lon="6.41652">
        <ele>113</ele>
        <time>2018-05-02T13:49:02Z</time>
      </trkpt>
      <trkpt lat="43.47001" lon="6.4166">
        <ele>113</ele>
        <time>2018-05-02T13:49:06Z</time>
      </trkpt>
      <trkpt lat="43.47" lon="6.41668">
        <ele>112</ele>
        <time>2018-05-02T13:49:12Z</time>
      </trkpt>
      <trkpt lat="43.47" lon="6.41676">
        <ele>112</ele>
        <time>2018-05-02T13:49:17Z</time>
      </trkpt>
      <trkpt lat="43.47001" lon="6.41694">
        <ele>109</ele>
        <time>2018-05-02T13:49:30Z</time>
      </trkpt>
      <trkpt lat="43.47002" lon="6.41711">
        <ele>107</ele>
        <time>2018-05-02T13:49:41Z</time>
      </trkpt>
      <trkpt lat="43.47002" lon="6.4172">
        <ele>106</ele>
        <time>2018-05-02T13:49:47Z</time>
      </trkpt>
      <trkpt lat="43.47005" lon="6.41729">
        <ele>106</ele>
        <time>2018-05-02T13:49:54Z</time>
      </trkpt>
      <trkpt lat="43.47008" lon="6.41744">
        <ele>105</ele>
        <time>2018-05-02T13:50:06Z</time>
      </trkpt>
      <trkpt lat="43.4701" lon="6.41751">
        <ele>105</ele>
        <time>2018-05-02T13:50:11Z</time>
      </trkpt>
      <trkpt lat="43.47011" lon="6.41763">
        <ele>105</ele>
        <time>2018-05-02T13:50:18Z</time>
      </trkpt>
      <trkpt lat="43.47001" lon="6.41762">
        <ele>104</ele>
        <time>2018-05-02T13:50:34Z</time>
      </trkpt>
      <trkpt lat="43.46993" lon="6.4176">
        <ele>102</ele>
        <time>2018-05-02T13:50:42Z</time>
      </trkpt>
      <trkpt lat="43.46986" lon="6.41762">
        <ele>102</ele>
        <time>2018-05-02T13:50:49Z</time>
      </trkpt>
      <trkpt lat="43.46982" lon="6.41768">
        <ele>101</ele>
        <time>2018-05-02T13:50:55Z</time>
      </trkpt>
      <trkpt lat="43.4698" lon="6.41774">
        <ele>102</ele>
        <time>2018-05-02T13:51:00Z</time>
      </trkpt>
      <trkpt lat="43.46968" lon="6.41821">
        <ele>102</ele>
        <time>2018-05-02T13:51:35Z</time>
      </trkpt>
      <trkpt lat="43.46968" lon="6.41831">
        <ele>101</ele>
        <time>2018-05-02T13:51:45Z</time>
      </trkpt>
      <trkpt lat="43.46965" lon="6.41853">
        <ele>101</ele>
        <time>2018-05-02T13:51:59Z</time>
      </trkpt>
      <trkpt lat="43.46954" lon="6.41877">
        <ele>100</ele>
        <time>2018-05-02T13:52:18Z</time>
      </trkpt>
      <trkpt lat="43.46934" lon="6.41908">
        <ele>102</ele>
        <time>2018-05-02T13:52:45Z</time>
      </trkpt>
      <trkpt lat="43.46918" lon="6.41926">
        <ele>103</ele>
        <time>2018-05-02T13:53:05Z</time>
      </trkpt>
      <trkpt lat="43.46914" lon="6.41932">
        <ele>103</ele>
        <time>2018-05-02T13:53:12Z</time>
      </trkpt>
      <trkpt lat="43.46905" lon="6.41949">
        <ele>104</ele>
        <time>2018-05-02T13:53:25Z</time>
      </trkpt>
      <trkpt lat="43.46898" lon="6.41971">
        <ele>104</ele>
        <time>2018-05-02T13:53:42Z</time>
      </trkpt>
      <trkpt lat="43.46892" lon="6.41978">
        <ele>105</ele>
        <time>2018-05-02T13:53:53Z</time>
      </trkpt>
      <trkpt lat="43.46887" lon="6.41985">
        <ele>105</ele>
        <time>2018-05-02T13:54:02Z</time>
      </trkpt>
      <trkpt lat="43.46878" lon="6.41987">
        <ele>105</ele>
        <time>2018-05-02T13:54:09Z</time>
      </trkpt>
      <trkpt lat="43.46871" lon="6.41992">
        <ele>104</ele>
        <time>2018-05-02T13:54:15Z</time>
      </trkpt>
      <trkpt lat="43.46857" lon="6.42003">
        <ele>104</ele>
        <time>2018-05-02T13:54:36Z</time>
      </trkpt>
      <trkpt lat="43.46851" lon="6.42009">
        <ele>104</ele>
        <time>2018-05-02T13:54:43Z</time>
      </trkpt>
      <trkpt lat="43.46844" lon="6.42016">
        <ele>103</ele>
        <time>2018-05-02T13:54:51Z</time>
      </trkpt>
      <trkpt lat="43.46838" lon="6.42019">
        <ele>103</ele>
        <time>2018-05-02T13:54:56Z</time>
      </trkpt>
      <trkpt lat="43.46833" lon="6.42027">
        <ele>102</ele>
        <time>2018-05-02T13:55:02Z</time>
      </trkpt>
      <trkpt lat="43.46814" lon="6.42047">
        <ele>102</ele>
        <time>2018-05-02T13:55:22Z</time>
      </trkpt>
      <trkpt lat="43.46778" lon="6.42064">
        <ele>103</ele>
        <time>2018-05-02T13:55:57Z</time>
      </trkpt>
      <trkpt lat="43.46773" lon="6.42073">
        <ele>104</ele>
        <time>2018-05-02T13:56:03Z</time>
      </trkpt>
      <trkpt lat="43.46771" lon="6.42082">
        <ele>104</ele>
        <time>2018-05-02T13:56:10Z</time>
      </trkpt>
      <trkpt lat="43.46769" lon="6.421">
        <ele>106</ele>
        <time>2018-05-02T13:56:21Z</time>
      </trkpt>
      <trkpt lat="43.4677" lon="6.42116">
        <ele>107</ele>
        <time>2018-05-02T13:56:31Z</time>
      </trkpt>
      <trkpt lat="43.46771" lon="6.42127">
        <ele>108</ele>
        <time>2018-05-02T13:56:37Z</time>
      </trkpt>
      <trkpt lat="43.46768" lon="6.42137">
        <ele>108</ele>
        <time>2018-05-02T13:56:45Z</time>
      </trkpt>
      <trkpt lat="43.46761" lon="6.42142">
        <ele>107</ele>
        <time>2018-05-02T13:56:56Z</time>
      </trkpt>
      <trkpt lat="43.4675" lon="6.42141">
        <ele>106</ele>
        <time>2018-05-02T13:57:06Z</time>
      </trkpt>
      <trkpt lat="43.4674" lon="6.42136">
        <ele>106</ele>
        <time>2018-05-02T13:57:14Z</time>
      </trkpt>
      <trkpt lat="43.46734" lon="6.4213">
        <ele>106</ele>
        <time>2018-05-02T13:57:18Z</time>
      </trkpt>
      <trkpt lat="43.46727" lon="6.42125">
        <ele>106</ele>
        <time>2018-05-02T13:57:22Z</time>
      </trkpt>
      <trkpt lat="43.4672" lon="6.42115">
        <ele>106</ele>
        <time>2018-05-02T13:57:28Z</time>
      </trkpt>
      <trkpt lat="43.46715" lon="6.42108">
        <ele>108</ele>
        <time>2018-05-02T13:57:34Z</time>
      </trkpt>
      <trkpt lat="43.46709" lon="6.42103">
        <ele>109</ele>
        <time>2018-05-02T13:57:39Z</time>
      </trkpt>
      <trkpt lat="43.46702" lon="6.42101">
        <ele>109</ele>
        <time>2018-05-02T13:57:41Z</time>
      </trkpt>
      <trkpt lat="43.46682" lon="6.42084">
        <ele>111</ele>
        <time>2018-05-02T13:58:04Z</time>
      </trkpt>
      <trkpt lat="43.46665" lon="6.42077">
        <ele>112</ele>
        <time>2018-05-02T13:58:23Z</time>
      </trkpt>
      <trkpt lat="43.46658" lon="6.42074">
        <ele>112</ele>
        <time>2018-05-02T13:58:33Z</time>
      </trkpt>
      <trkpt lat="43.46637" lon="6.42067">
        <ele>113</ele>
        <time>2018-05-02T13:58:56Z</time>
      </trkpt>
      <trkpt lat="43.46623" lon="6.42064">
        <ele>114</ele>
        <time>2018-05-02T13:59:09Z</time>
      </trkpt>
      <trkpt lat="43.46617" lon="6.42066">
        <ele>116</ele>
        <time>2018-05-02T13:59:36Z</time>
      </trkpt>
      <trkpt lat="43.46609" lon="6.4207">
        <ele>115</ele>
        <time>2018-05-02T13:59:51Z</time>
      </trkpt>
      <trkpt lat="43.46602" lon="6.42068">
        <ele>116</ele>
        <time>2018-05-02T14:00:01Z</time>
      </trkpt>
      <trkpt lat="43.46595" lon="6.42073">
        <ele>119</ele>
        <time>2018-05-02T14:00:15Z</time>
      </trkpt>
      <trkpt lat="43.4658" lon="6.42071">
        <ele>118</ele>
        <time>2018-05-02T14:00:29Z</time>
      </trkpt>
      <trkpt lat="43.46576" lon="6.42065">
        <ele>118</ele>
        <time>2018-05-02T14:00:42Z</time>
      </trkpt>
      <trkpt lat="43.46574" lon="6.42078">
        <ele>117</ele>
        <time>2018-05-02T14:04:38Z</time>
      </trkpt>
      <trkpt lat="43.46568" lon="6.42084">
        <ele>119</ele>
        <time>2018-05-02T14:05:13Z</time>
      </trkpt>
      <trkpt lat="43.46543" lon="6.42118">
        <ele>116</ele>
        <time>2018-05-02T14:05:50Z</time>
      </trkpt>
      <trkpt lat="43.46537" lon="6.42131">
        <ele>115</ele>
        <time>2018-05-02T14:06:03Z</time>
      </trkpt>
      <trkpt lat="43.46533" lon="6.4214">
        <ele>114</ele>
        <time>2018-05-02T14:06:14Z</time>
      </trkpt>
      <trkpt lat="43.46528" lon="6.42163">
        <ele>112</ele>
        <time>2018-05-02T14:06:34Z</time>
      </trkpt>
      <trkpt lat="43.46526" lon="6.42172">
        <ele>112</ele>
        <time>2018-05-02T14:06:41Z</time>
      </trkpt>
      <trkpt lat="43.46521" lon="6.42202">
        <ele>114</ele>
        <time>2018-05-02T14:06:59Z</time>
      </trkpt>
      <trkpt lat="43.4652" lon="6.42212">
        <ele>115</ele>
        <time>2018-05-02T14:07:05Z</time>
      </trkpt>
      <trkpt lat="43.46518" lon="6.42231">
        <ele>116</ele>
        <time>2018-05-02T14:07:19Z</time>
      </trkpt>
      <trkpt lat="43.46513" lon="6.42241">
        <ele>118</ele>
        <time>2018-05-02T14:07:30Z</time>
      </trkpt>
      <trkpt lat="43.4651" lon="6.42248">
        <ele>119</ele>
        <time>2018-05-02T14:07:38Z</time>
      </trkpt>
      <trkpt lat="43.46504" lon="6.42256">
        <ele>120</ele>
        <time>2018-05-02T14:07:46Z</time>
      </trkpt>
      <trkpt lat="43.465" lon="6.42262">
        <ele>120</ele>
        <time>2018-05-02T14:07:53Z</time>
      </trkpt>
      <trkpt lat="43.46499" lon="6.42271">
        <ele>120</ele>
        <time>2018-05-02T14:07:57Z</time>
      </trkpt>
      <trkpt lat="43.46498" lon="6.4228">
        <ele>121</ele>
        <time>2018-05-02T14:08:48Z</time>
      </trkpt>
      <trkpt lat="43.46499" lon="6.42288">
        <ele>122</ele>
        <time>2018-05-02T14:08:55Z</time>
      </trkpt>
      <trkpt lat="43.46503" lon="6.42296">
        <ele>122</ele>
        <time>2018-05-02T14:09:00Z</time>
      </trkpt>
      <trkpt lat="43.46512" lon="6.4231">
        <ele>123</ele>
        <time>2018-05-02T14:09:12Z</time>
      </trkpt>
      <trkpt lat="43.46519" lon="6.42324">
        <ele>123</ele>
        <time>2018-05-02T14:09:23Z</time>
      </trkpt>
      <trkpt lat="43.46524" lon="6.42333">
        <ele>123</ele>
        <time>2018-05-02T14:09:31Z</time>
      </trkpt>
      <trkpt lat="43.46526" lon="6.42341">
        <ele>123</ele>
        <time>2018-05-02T14:09:38Z</time>
      </trkpt>
      <trkpt lat="43.46529" lon="6.42351">
        <ele>122</ele>
        <time>2018-05-02T14:09:45Z</time>
      </trkpt>
      <trkpt lat="43.46527" lon="6.42372">
        <ele>122</ele>
        <time>2018-05-02T14:09:58Z</time>
      </trkpt>
      <trkpt lat="43.46528" lon="6.42381">
        <ele>122</ele>
        <time>2018-05-02T14:10:02Z</time>
      </trkpt>
      <trkpt lat="43.4653" lon="6.42389">
        <ele>122</ele>
        <time>2018-05-02T14:10:09Z</time>
      </trkpt>
      <trkpt lat="43.46529" lon="6.42406">
        <ele>122</ele>
        <time>2018-05-02T14:10:20Z</time>
      </trkpt>
      <trkpt lat="43.46531" lon="6.42443">
        <ele>122</ele>
        <time>2018-05-02T14:10:42Z</time>
      </trkpt>
      <trkpt lat="43.46531" lon="6.4245">
        <ele>122</ele>
        <time>2018-05-02T14:10:49Z</time>
      </trkpt>
      <trkpt lat="43.46532" lon="6.42458">
        <ele>122</ele>
        <time>2018-05-02T14:10:56Z</time>
      </trkpt>
      <trkpt lat="43.46533" lon="6.42467">
        <ele>122</ele>
        <time>2018-05-02T14:11:01Z</time>
      </trkpt>
      <trkpt lat="43.46532" lon="6.42475">
        <ele>122</ele>
        <time>2018-05-02T14:11:06Z</time>
      </trkpt>
      <trkpt lat="43.4653" lon="6.42486">
        <ele>123</ele>
        <time>2018-05-02T14:11:14Z</time>
      </trkpt>
      <trkpt lat="43.46522" lon="6.42487">
        <ele>123</ele>
        <time>2018-05-02T14:11:20Z</time>
      </trkpt>
      <trkpt lat="43.46514" lon="6.42482">
        <ele>123</ele>
        <time>2018-05-02T14:11:27Z</time>
      </trkpt>
      <trkpt lat="43.46509" lon="6.42473">
        <ele>124</ele>
        <time>2018-05-02T14:11:33Z</time>
      </trkpt>
      <trkpt lat="43.46503" lon="6.42459">
        <ele>125</ele>
        <time>2018-05-02T14:11:44Z</time>
      </trkpt>
      <trkpt lat="43.46499" lon="6.42451">
        <ele>126</ele>
        <time>2018-05-02T14:11:51Z</time>
      </trkpt>
      <trkpt lat="43.46496" lon="6.42441">
        <ele>126</ele>
        <time>2018-05-02T14:12:01Z</time>
      </trkpt>
      <trkpt lat="43.46493" lon="6.42423">
        <ele>127</ele>
        <time>2018-05-02T14:12:15Z</time>
      </trkpt>
      <trkpt lat="43.46489" lon="6.42416">
        <ele>127</ele>
        <time>2018-05-02T14:12:21Z</time>
      </trkpt>
      <trkpt lat="43.46472" lon="6.42398">
        <ele>127</ele>
        <time>2018-05-02T14:12:40Z</time>
      </trkpt>
      <trkpt lat="43.46465" lon="6.42392">
        <ele>127</ele>
        <time>2018-05-02T14:12:48Z</time>
      </trkpt>
      <trkpt lat="43.46462" lon="6.42384">
        <ele>128</ele>
        <time>2018-05-02T14:12:54Z</time>
      </trkpt>
      <trkpt lat="43.46458" lon="6.42379">
        <ele>128</ele>
        <time>2018-05-02T14:13:02Z</time>
      </trkpt>
      <trkpt lat="43.46451" lon="6.42374">
        <ele>129</ele>
        <time>2018-05-02T14:13:10Z</time>
      </trkpt>
      <trkpt lat="43.46444" lon="6.4237">
        <ele>129</ele>
        <time>2018-05-02T14:13:16Z</time>
      </trkpt>
      <trkpt lat="43.46426" lon="6.42351">
        <ele>130</ele>
        <time>2018-05-02T14:13:35Z</time>
      </trkpt>
      <trkpt lat="43.4642" lon="6.42349">
        <ele>131</ele>
        <time>2018-05-02T14:13:42Z</time>
      </trkpt>
      <trkpt lat="43.46412" lon="6.42351">
        <ele>131</ele>
        <time>2018-05-02T14:14:28Z</time>
      </trkpt>
      <trkpt lat="43.46407" lon="6.42351">
        <ele>131</ele>
        <time>2018-05-02T14:14:32Z</time>
      </trkpt>
      <trkpt lat="43.46401" lon="6.42351">
        <ele>131</ele>
        <time>2018-05-02T14:14:40Z</time>
      </trkpt>
      <trkpt lat="43.46394" lon="6.42354">
        <ele>131</ele>
        <time>2018-05-02T14:14:47Z</time>
      </trkpt>
      <trkpt lat="43.46388" lon="6.42356">
        <ele>131</ele>
        <time>2018-05-02T14:14:53Z</time>
      </trkpt>
      <trkpt lat="43.46375" lon="6.42364">
        <ele>132</ele>
        <time>2018-05-02T14:15:07Z</time>
      </trkpt>
      <trkpt lat="43.46364" lon="6.42374">
        <ele>132</ele>
        <time>2018-05-02T14:15:22Z</time>
      </trkpt>
      <trkpt lat="43.46359" lon="6.42379">
        <ele>132</ele>
        <time>2018-05-02T14:15:26Z</time>
      </trkpt>
      <trkpt lat="43.46353" lon="6.42384">
        <ele>132</ele>
        <time>2018-05-02T14:15:32Z</time>
      </trkpt>
      <trkpt lat="43.46347" lon="6.4239">
        <ele>132</ele>
        <time>2018-05-02T14:15:39Z</time>
      </trkpt>
      <trkpt lat="43.46341" lon="6.42396">
        <ele>132</ele>
        <time>2018-05-02T14:15:51Z</time>
      </trkpt>
      <trkpt lat="43.46334" lon="6.424">
        <ele>132</ele>
        <time>2018-05-02T14:16:14Z</time>
      </trkpt>
      <trkpt lat="43.46326" lon="6.42417">
        <ele>131</ele>
        <time>2018-05-02T14:16:29Z</time>
      </trkpt>
      <trkpt lat="43.46321" lon="6.42423">
        <ele>130</ele>
        <time>2018-05-02T14:16:34Z</time>
      </trkpt>
      <trkpt lat="43.4631" lon="6.42436">
        <ele>130</ele>
        <time>2018-05-02T14:16:48Z</time>
      </trkpt>
      <trkpt lat="43.46305" lon="6.42444">
        <ele>130</ele>
        <time>2018-05-02T14:16:56Z</time>
      </trkpt>
      <trkpt lat="43.463" lon="6.42449">
        <ele>130</ele>
        <time>2018-05-02T14:17:01Z</time>
      </trkpt>
      <trkpt lat="43.46289" lon="6.42461">
        <ele>131</ele>
        <time>2018-05-02T14:17:13Z</time>
      </trkpt>
      <trkpt lat="43.46287" lon="6.42469">
        <ele>131</ele>
        <time>2018-05-02T14:17:18Z</time>
      </trkpt>
      <trkpt lat="43.46284" lon="6.42477">
        <ele>132</ele>
        <time>2018-05-02T14:17:23Z</time>
      </trkpt>
      <trkpt lat="43.4628" lon="6.42485">
        <ele>132</ele>
        <time>2018-05-02T14:17:31Z</time>
      </trkpt>
      <trkpt lat="43.46275" lon="6.42492">
        <ele>133</ele>
        <time>2018-05-02T14:17:37Z</time>
      </trkpt>
      <trkpt lat="43.46265" lon="6.42506">
        <ele>133</ele>
        <time>2018-05-02T14:17:50Z</time>
      </trkpt>
      <trkpt lat="43.46259" lon="6.42514">
        <ele>133</ele>
        <time>2018-05-02T14:17:58Z</time>
      </trkpt>
      <trkpt lat="43.46253" lon="6.4253">
        <ele>133</ele>
        <time>2018-05-02T14:18:10Z</time>
      </trkpt>
      <trkpt lat="43.4625" lon="6.42537">
        <ele>133</ele>
        <time>2018-05-02T14:18:14Z</time>
      </trkpt>
      <trkpt lat="43.46248" lon="6.42546">
        <ele>133</ele>
        <time>2018-05-02T14:18:21Z</time>
      </trkpt>
      <trkpt lat="43.46247" lon="6.42555">
        <ele>134</ele>
        <time>2018-05-02T14:18:27Z</time>
      </trkpt>
      <trkpt lat="43.46245" lon="6.42561">
        <ele>134</ele>
        <time>2018-05-02T14:18:32Z</time>
      </trkpt>
      <trkpt lat="43.46244" lon="6.42569">
        <ele>134</ele>
        <time>2018-05-02T14:18:37Z</time>
      </trkpt>
      <trkpt lat="43.46241" lon="6.42577">
        <ele>133</ele>
        <time>2018-05-02T14:18:42Z</time>
      </trkpt>
      <trkpt lat="43.46238" lon="6.42585">
        <ele>134</ele>
        <time>2018-05-02T14:18:48Z</time>
      </trkpt>
      <trkpt lat="43.46235" lon="6.42593">
        <ele>134</ele>
        <time>2018-05-02T14:18:54Z</time>
      </trkpt>
      <trkpt lat="43.46236" lon="6.42604">
        <ele>134</ele>
        <time>2018-05-02T14:19:02Z</time>
      </trkpt>
      <trkpt lat="43.46237" lon="6.42624">
        <ele>134</ele>
        <time>2018-05-02T14:19:18Z</time>
      </trkpt>
      <trkpt lat="43.46235" lon="6.42636">
        <ele>134</ele>
        <time>2018-05-02T14:19:25Z</time>
      </trkpt>
      <trkpt lat="43.4623" lon="6.42653">
        <ele>134</ele>
        <time>2018-05-02T14:19:38Z</time>
      </trkpt>
      <trkpt lat="43.46225" lon="6.42684">
        <ele>133</ele>
        <time>2018-05-02T14:19:59Z</time>
      </trkpt>
      <trkpt lat="43.46222" lon="6.42694">
        <ele>133</ele>
        <time>2018-05-02T14:20:07Z</time>
      </trkpt>
      <trkpt lat="43.46216" lon="6.42713">
        <ele>133</ele>
        <time>2018-05-02T14:20:20Z</time>
      </trkpt>
      <trkpt lat="43.46214" lon="6.42723">
        <ele>133</ele>
        <time>2018-05-02T14:20:29Z</time>
      </trkpt>
      <trkpt lat="43.46214" lon="6.42735">
        <ele>133</ele>
        <time>2018-05-02T14:20:38Z</time>
      </trkpt>
      <trkpt lat="43.46213" lon="6.42744">
        <ele>134</ele>
        <time>2018-05-02T14:20:44Z</time>
      </trkpt>
      <trkpt lat="43.46216" lon="6.42754">
        <ele>135</ele>
        <time>2018-05-02T14:20:50Z</time>
      </trkpt>
      <trkpt lat="43.46216" lon="6.42764">
        <ele>135</ele>
        <time>2018-05-02T14:20:58Z</time>
      </trkpt>
      <trkpt lat="43.46214" lon="6.42776">
        <ele>136</ele>
        <time>2018-05-02T14:21:05Z</time>
      </trkpt>
      <trkpt lat="43.46211" lon="6.42787">
        <ele>136</ele>
        <time>2018-05-02T14:21:11Z</time>
      </trkpt>
      <trkpt lat="43.46207" lon="6.42795">
        <ele>137</ele>
        <time>2018-05-02T14:21:17Z</time>
      </trkpt>
      <trkpt lat="43.46206" lon="6.42805">
        <ele>137</ele>
        <time>2018-05-02T14:21:26Z</time>
      </trkpt>
      <trkpt lat="43.46202" lon="6.42825">
        <ele>139</ele>
        <time>2018-05-02T14:21:45Z</time>
      </trkpt>
      <trkpt lat="43.46193" lon="6.42853">
        <ele>142</ele>
        <time>2018-05-02T14:22:08Z</time>
      </trkpt>
      <trkpt lat="43.4619" lon="6.42863">
        <ele>143</ele>
        <time>2018-05-02T14:22:17Z</time>
      </trkpt>
      <trkpt lat="43.46182" lon="6.42879">
        <ele>144</ele>
        <time>2018-05-02T14:22:28Z</time>
      </trkpt>
      <trkpt lat="43.46174" lon="6.42891">
        <ele>145</ele>
        <time>2018-05-02T14:22:40Z</time>
      </trkpt>
      <trkpt lat="43.46166" lon="6.42886">
        <ele>144</ele>
        <time>2018-05-02T14:22:48Z</time>
      </trkpt>
      <trkpt lat="43.46164" lon="6.42871">
        <ele>144</ele>
        <time>2018-05-02T14:22:57Z</time>
      </trkpt>
      <trkpt lat="43.46162" lon="6.4286">
        <ele>145</ele>
        <time>2018-05-02T14:23:01Z</time>
      </trkpt>
      <trkpt lat="43.4616" lon="6.4285">
        <ele>145</ele>
        <time>2018-05-02T14:23:08Z</time>
      </trkpt>
      <trkpt lat="43.46155" lon="6.4283">
        <ele>147</ele>
        <time>2018-05-02T14:23:21Z</time>
      </trkpt>
      <trkpt lat="43.46153" lon="6.4282">
        <ele>149</ele>
        <time>2018-05-02T14:23:28Z</time>
      </trkpt>
      <trkpt lat="43.46149" lon="6.4281">
        <ele>150</ele>
        <time>2018-05-02T14:23:34Z</time>
      </trkpt>
      <trkpt lat="43.46147" lon="6.42801">
        <ele>151</ele>
        <time>2018-05-02T14:23:41Z</time>
      </trkpt>
      <trkpt lat="43.46139" lon="6.42792">
        <ele>151</ele>
        <time>2018-05-02T14:23:48Z</time>
      </trkpt>
      <trkpt lat="43.4613" lon="6.42784">
        <ele>152</ele>
        <time>2018-05-02T14:23:59Z</time>
      </trkpt>
      <trkpt lat="43.46123" lon="6.4276">
        <ele>154</ele>
        <time>2018-05-02T14:24:19Z</time>
      </trkpt>
      <trkpt lat="43.46125" lon="6.42745">
        <ele>156</ele>
        <time>2018-05-02T14:24:31Z</time>
      </trkpt>
      <trkpt lat="43.46125" lon="6.42735">
        <ele>156</ele>
        <time>2018-05-02T14:24:38Z</time>
      </trkpt>
      <trkpt lat="43.46123" lon="6.42713">
        <ele>155</ele>
        <time>2018-05-02T14:24:51Z</time>
      </trkpt>
      <trkpt lat="43.46117" lon="6.42694">
        <ele>154</ele>
        <time>2018-05-02T14:25:02Z</time>
      </trkpt>
      <trkpt lat="43.46116" lon="6.42684">
        <ele>154</ele>
        <time>2018-05-02T14:25:08Z</time>
      </trkpt>
      <trkpt lat="43.46116" lon="6.42673">
        <ele>154</ele>
        <time>2018-05-02T14:25:16Z</time>
      </trkpt>
      <trkpt lat="43.46118" lon="6.42663">
        <ele>154</ele>
        <time>2018-05-02T14:25:20Z</time>
      </trkpt>
      <trkpt lat="43.46117" lon="6.42641">
        <ele>154</ele>
        <time>2018-05-02T14:25:41Z</time>
      </trkpt>
      <trkpt lat="43.46114" lon="6.42632">
        <ele>154</ele>
        <time>2018-05-02T14:25:53Z</time>
      </trkpt>
      <trkpt lat="43.46109" lon="6.42621">
        <ele>154</ele>
        <time>2018-05-02T14:25:59Z</time>
      </trkpt>
      <trkpt lat="43.46107" lon="6.42613">
        <ele>154</ele>
        <time>2018-05-02T14:26:04Z</time>
      </trkpt>
      <trkpt lat="43.46102" lon="6.42605">
        <ele>154</ele>
        <time>2018-05-02T14:26:10Z</time>
      </trkpt>
      <trkpt lat="43.46101" lon="6.42595">
        <ele>154</ele>
        <time>2018-05-02T14:26:18Z</time>
      </trkpt>
      <trkpt lat="43.46093" lon="6.42578">
        <ele>154</ele>
        <time>2018-05-02T14:26:35Z</time>
      </trkpt>
      <trkpt lat="43.46082" lon="6.4256">
        <ele>155</ele>
        <time>2018-05-02T14:26:50Z</time>
      </trkpt>
      <trkpt lat="43.46075" lon="6.42551">
        <ele>155</ele>
        <time>2018-05-02T14:26:58Z</time>
      </trkpt>
      <trkpt lat="43.46068" lon="6.42551">
        <ele>155</ele>
        <time>2018-05-02T14:27:09Z</time>
      </trkpt>
      <trkpt lat="43.46056" lon="6.4255">
        <ele>156</ele>
        <time>2018-05-02T14:27:21Z</time>
      </trkpt>
      <trkpt lat="43.46049" lon="6.42554">
        <ele>155</ele>
        <time>2018-05-02T14:27:34Z</time>
      </trkpt>
      <trkpt lat="43.46043" lon="6.42554">
        <ele>154</ele>
        <time>2018-05-02T14:27:38Z</time>
      </trkpt>
      <trkpt lat="43.46009" lon="6.42563">
        <ele>155</ele>
        <time>2018-05-02T14:28:08Z</time>
      </trkpt>
      <trkpt lat="43.46001" lon="6.42564">
        <ele>155</ele>
        <time>2018-05-02T14:28:14Z</time>
      </trkpt>
      <trkpt lat="43.45997" lon="6.42569">
        <ele>155</ele>
        <time>2018-05-02T14:28:18Z</time>
      </trkpt>
      <trkpt lat="43.45981" lon="6.42572">
        <ele>155</ele>
        <time>2018-05-02T14:28:34Z</time>
      </trkpt>
      <trkpt lat="43.45976" lon="6.42574">
        <ele>154</ele>
        <time>2018-05-02T14:28:40Z</time>
      </trkpt>
      <trkpt lat="43.45969" lon="6.42576">
        <ele>155</ele>
        <time>2018-05-02T14:28:47Z</time>
      </trkpt>
      <trkpt lat="43.45961" lon="6.42575">
        <ele>155</ele>
        <time>2018-05-02T14:28:53Z</time>
      </trkpt>
      <trkpt lat="43.45926" lon="6.42583">
        <ele>157</ele>
        <time>2018-05-02T14:29:27Z</time>
      </trkpt>
      <trkpt lat="43.45919" lon="6.42586">
        <ele>157</ele>
        <time>2018-05-02T14:29:35Z</time>
      </trkpt>
      <trkpt lat="43.45911" lon="6.42587">
        <ele>157</ele>
        <time>2018-05-02T14:29:43Z</time>
      </trkpt>
      <trkpt lat="43.45905" lon="6.42589">
        <ele>158</ele>
        <time>2018-05-02T14:29:48Z</time>
      </trkpt>
      <trkpt lat="43.45889" lon="6.42589">
        <ele>158</ele>
        <time>2018-05-02T14:30:06Z</time>
      </trkpt>
      <trkpt lat="43.45883" lon="6.42591">
        <ele>158</ele>
        <time>2018-05-02T14:30:12Z</time>
      </trkpt>
      <trkpt lat="43.45864" lon="6.42597">
        <ele>159</ele>
        <time>2018-05-02T14:30:30Z</time>
      </trkpt>
      <trkpt lat="43.45846" lon="6.42606">
        <ele>159</ele>
        <time>2018-05-02T14:30:50Z</time>
      </trkpt>
      <trkpt lat="43.45842" lon="6.42611">
        <ele>159</ele>
        <time>2018-05-02T14:30:56Z</time>
      </trkpt>
      <trkpt lat="43.45838" lon="6.42617">
        <ele>159</ele>
        <time>2018-05-02T14:31:03Z</time>
      </trkpt>
      <trkpt lat="43.45834" lon="6.42623">
        <ele>158</ele>
        <time>2018-05-02T14:31:09Z</time>
      </trkpt>
      <trkpt lat="43.45826" lon="6.42637">
        <ele>158</ele>
        <time>2018-05-02T14:31:26Z</time>
      </trkpt>
      <trkpt lat="43.4582" lon="6.42656">
        <ele>157</ele>
        <time>2018-05-02T14:31:42Z</time>
      </trkpt>
      <trkpt lat="43.45817" lon="6.42663">
        <ele>157</ele>
        <time>2018-05-02T14:31:47Z</time>
      </trkpt>
      <trkpt lat="43.45815" lon="6.42671">
        <ele>157</ele>
        <time>2018-05-02T14:31:53Z</time>
      </trkpt>
      <trkpt lat="43.45811" lon="6.42678">
        <ele>156</ele>
        <time>2018-05-02T14:31:58Z</time>
      </trkpt>
      <trkpt lat="43.45808" lon="6.42685">
        <ele>156</ele>
        <time>2018-05-02T14:32:03Z</time>
      </trkpt>
      <trkpt lat="43.45806" lon="6.42693">
        <ele>156</ele>
        <time>2018-05-02T14:32:14Z</time>
      </trkpt>
      <trkpt lat="43.45801" lon="6.42688">
        <ele>156</ele>
        <time>2018-05-02T14:33:20Z</time>
      </trkpt>
      <trkpt lat="43.45798" lon="6.427">
        <ele>156</ele>
        <time>2018-05-02T14:35:49Z</time>
      </trkpt>
      <trkpt lat="43.4579" lon="6.42721">
        <ele>157</ele>
        <time>2018-05-02T14:36:02Z</time>
      </trkpt>
      <trkpt lat="43.45786" lon="6.42728">
        <ele>157</ele>
        <time>2018-05-02T14:36:08Z</time>
      </trkpt>
      <trkpt lat="43.45784" lon="6.42737">
        <ele>157</ele>
        <time>2018-05-02T14:36:17Z</time>
      </trkpt>
      <trkpt lat="43.45781" lon="6.42746">
        <ele>157</ele>
        <time>2018-05-02T14:36:23Z</time>
      </trkpt>
      <trkpt lat="43.45778" lon="6.42756">
        <ele>156</ele>
        <time>2018-05-02T14:36:31Z</time>
      </trkpt>
      <trkpt lat="43.45774" lon="6.42764">
        <ele>156</ele>
        <time>2018-05-02T14:36:37Z</time>
      </trkpt>
      <trkpt lat="43.4577" lon="6.42774">
        <ele>156</ele>
        <time>2018-05-02T14:36:44Z</time>
      </trkpt>
      <trkpt lat="43.45768" lon="6.42784">
        <ele>156</ele>
        <time>2018-05-02T14:36:50Z</time>
      </trkpt>
      <trkpt lat="43.45763" lon="6.42791">
        <ele>155</ele>
        <time>2018-05-02T14:37:16Z</time>
      </trkpt>
      <trkpt lat="43.45757" lon="6.42794">
        <ele>154</ele>
        <time>2018-05-02T14:37:33Z</time>
      </trkpt>
      <trkpt lat="43.45751" lon="6.42796">
        <ele>154</ele>
        <time>2018-05-02T14:37:41Z</time>
      </trkpt>
      <trkpt lat="43.45743" lon="6.428">
        <ele>153</ele>
        <time>2018-05-02T14:37:53Z</time>
      </trkpt>
      <trkpt lat="43.45735" lon="6.42801">
        <ele>152</ele>
        <time>2018-05-02T14:38:09Z</time>
      </trkpt>
      <trkpt lat="43.45727" lon="6.42801">
        <ele>152</ele>
        <time>2018-05-02T14:38:18Z</time>
      </trkpt>
      <trkpt lat="43.45716" lon="6.428">
        <ele>152</ele>
        <time>2018-05-02T14:38:30Z</time>
      </trkpt>
      <trkpt lat="43.45704" lon="6.42794">
        <ele>149</ele>
        <time>2018-05-02T14:38:53Z</time>
      </trkpt>
      <trkpt lat="43.45675" lon="6.42779">
        <ele>139</ele>
        <time>2018-05-02T14:39:30Z</time>
      </trkpt>
      <trkpt lat="43.45667" lon="6.42779">
        <ele>136</ele>
        <time>2018-05-02T14:39:45Z</time>
      </trkpt>
      <trkpt lat="43.45659" lon="6.4278">
        <ele>134</ele>
        <time>2018-05-02T14:39:53Z</time>
      </trkpt>
      <trkpt lat="43.45657" lon="6.42773">
        <ele>134</ele>
        <time>2018-05-02T14:39:59Z</time>
      </trkpt>
      <trkpt lat="43.45648" lon="6.42756">
        <ele>131</ele>
        <time>2018-05-02T14:40:17Z</time>
      </trkpt>
      <trkpt lat="43.45647" lon="6.42746">
        <ele>129</ele>
        <time>2018-05-02T14:40:25Z</time>
      </trkpt>
      <trkpt lat="43.45646" lon="6.42738">
        <ele>129</ele>
        <time>2018-05-02T14:40:28Z</time>
      </trkpt>
      <trkpt lat="43.45647" lon="6.42728">
        <ele>128</ele>
        <time>2018-05-02T14:40:36Z</time>
      </trkpt>
      <trkpt lat="43.45647" lon="6.42717">
        <ele>127</ele>
        <time>2018-05-02T14:40:44Z</time>
      </trkpt>
      <trkpt lat="43.45648" lon="6.427">
        <ele>127</ele>
        <time>2018-05-02T14:41:02Z</time>
      </trkpt>
      <trkpt lat="43.45648" lon="6.42692">
        <ele>127</ele>
        <time>2018-05-02T14:41:07Z</time>
      </trkpt>
      <trkpt lat="43.45651" lon="6.4268">
        <ele>126</ele>
        <time>2018-05-02T14:41:14Z</time>
      </trkpt>
      <trkpt lat="43.45652" lon="6.42671">
        <ele>126</ele>
        <time>2018-05-02T14:41:19Z</time>
      </trkpt>
      <trkpt lat="43.45656" lon="6.42658">
        <ele>124</ele>
        <time>2018-05-02T14:41:29Z</time>
      </trkpt>
      <trkpt lat="43.45647" lon="6.42652">
        <ele>124</ele>
        <time>2018-05-02T14:41:49Z</time>
      </trkpt>
      <trkpt lat="43.4564" lon="6.42657">
        <ele>123</ele>
        <time>2018-05-02T14:41:58Z</time>
      </trkpt>
      <trkpt lat="43.45634" lon="6.42665">
        <ele>121</ele>
        <time>2018-05-02T14:42:05Z</time>
      </trkpt>
      <trkpt lat="43.4563" lon="6.42671">
        <ele>121</ele>
        <time>2018-05-02T14:42:12Z</time>
      </trkpt>
      <trkpt lat="43.45627" lon="6.42679">
        <ele>120</ele>
        <time>2018-05-02T14:42:18Z</time>
      </trkpt>
      <trkpt lat="43.45622" lon="6.42689">
        <ele>120</ele>
        <time>2018-05-02T14:42:24Z</time>
      </trkpt>
      <trkpt lat="43.45619" lon="6.42694">
        <ele>119</ele>
        <time>2018-05-02T14:42:31Z</time>
      </trkpt>
      <trkpt lat="43.45613" lon="6.42705">
        <ele>118</ele>
        <time>2018-05-02T14:42:40Z</time>
      </trkpt>
      <trkpt lat="43.4561" lon="6.42711">
        <ele>117</ele>
        <time>2018-05-02T14:42:50Z</time>
      </trkpt>
      <trkpt lat="43.45603" lon="6.4272">
        <ele>116</ele>
        <time>2018-05-02T14:42:59Z</time>
      </trkpt>
      <trkpt lat="43.45599" lon="6.42727">
        <ele>116</ele>
        <time>2018-05-02T14:43:04Z</time>
      </trkpt>
      <trkpt lat="43.45596" lon="6.42736">
        <ele>116</ele>
        <time>2018-05-02T14:43:15Z</time>
      </trkpt>
      <trkpt lat="43.4559" lon="6.42743">
        <ele>116</ele>
        <time>2018-05-02T14:43:27Z</time>
      </trkpt>
      <trkpt lat="43.45587" lon="6.42751">
        <ele>114</ele>
        <time>2018-05-02T14:43:39Z</time>
      </trkpt>
      <trkpt lat="43.45579" lon="6.42756">
        <ele>112</ele>
        <time>2018-05-02T14:44:03Z</time>
      </trkpt>
      <trkpt lat="43.45573" lon="6.42744">
        <ele>112</ele>
        <time>2018-05-02T14:44:13Z</time>
      </trkpt>
      <trkpt lat="43.45565" lon="6.42735">
        <ele>111</ele>
        <time>2018-05-02T14:44:25Z</time>
      </trkpt>
      <trkpt lat="43.4556" lon="6.42744">
        <ele>111</ele>
        <time>2018-05-02T14:44:34Z</time>
      </trkpt>
      <trkpt lat="43.4555" lon="6.42753">
        <ele>111</ele>
        <time>2018-05-02T14:45:02Z</time>
      </trkpt>
      <trkpt lat="43.45534" lon="6.4275">
        <ele>108</ele>
        <time>2018-05-02T14:45:25Z</time>
      </trkpt>
      <trkpt lat="43.45528" lon="6.42745">
        <ele>104</ele>
        <time>2018-05-02T14:45:35Z</time>
      </trkpt>
      <trkpt lat="43.4551" lon="6.42729">
        <ele>100</ele>
        <time>2018-05-02T14:45:56Z</time>
      </trkpt>
      <trkpt lat="43.45502" lon="6.42729">
        <ele>99</ele>
        <time>2018-05-02T14:46:05Z</time>
      </trkpt>
      <trkpt lat="43.45497" lon="6.42729">
        <ele>98</ele>
        <time>2018-05-02T14:46:13Z</time>
      </trkpt>
      <trkpt lat="43.4549" lon="6.42725">
        <ele>98</ele>
        <time>2018-05-02T14:46:26Z</time>
      </trkpt>
      <trkpt lat="43.45485" lon="6.42724">
        <ele>98</ele>
        <time>2018-05-02T14:46:36Z</time>
      </trkpt>
      <trkpt lat="43.45475" lon="6.42721">
        <ele>98</ele>
        <time>2018-05-02T14:46:51Z</time>
      </trkpt>
      <trkpt lat="43.45468" lon="6.42719">
        <ele>99</ele>
        <time>2018-05-02T14:46:59Z</time>
      </trkpt>
      <trkpt lat="43.45462" lon="6.42715">
        <ele>99</ele>
        <time>2018-05-02T14:47:07Z</time>
      </trkpt>
      <trkpt lat="43.45457" lon="6.4271">
        <ele>97</ele>
        <time>2018-05-02T14:47:21Z</time>
      </trkpt>
      <trkpt lat="43.45449" lon="6.42704">
        <ele>95</ele>
        <time>2018-05-02T14:47:36Z</time>
      </trkpt>
      <trkpt lat="43.45441" lon="6.42706">
        <ele>93</ele>
        <time>2018-05-02T14:47:45Z</time>
      </trkpt>
      <trkpt lat="43.45435" lon="6.42701">
        <ele>91</ele>
        <time>2018-05-02T14:47:54Z</time>
      </trkpt>
      <trkpt lat="43.45427" lon="6.42688">
        <ele>91</ele>
        <time>2018-05-02T14:48:14Z</time>
      </trkpt>
      <trkpt lat="43.45422" lon="6.42667">
        <ele>93</ele>
        <time>2018-05-02T14:48:27Z</time>
      </trkpt>
      <trkpt lat="43.45417" lon="6.42662">
        <ele>94</ele>
        <time>2018-05-02T14:48:37Z</time>
      </trkpt>
      <trkpt lat="43.45403" lon="6.42657">
        <ele>95</ele>
        <time>2018-05-02T14:48:55Z</time>
      </trkpt>
    </trkseg>
  </trk>
</gpx>